Observation data for Mertzon on 11/14/2019      Previous  Date       Current Mesonet Observations  Soil Data  Daily Summary Page  Observations in Plain Language
KME1 140600Z 20004KT 03/01 A3007 RMK A01 T00340010  RH  085%=      5-min Rain = 0
KME1 140601Z 20005KT 03/01 A3007 RMK A01 T00330010  RH  085%=      5-min Rain = 0
KME1 140602Z 21004KT 03/01 A3007 RMK A01 T00330010  RH  085%=      5-min Rain = 0
KME1 140603Z 22002KT 03/01 A3007 RMK A01 T00330010  RH  085%=      5-min Rain = 0
KME1 140604Z 26002KT 03/01 A3008 RMK A01 T00330010  RH  085%=      5-min Rain = 0
KME1 140605Z 28002KT 03/01 A3008 RMK A01 T00320010  RH  085%=      5-min Rain = 0
KME1 140606Z 27003KT 03/01 A3008 RMK A01 T00320010  RH  085%=      5-min Rain = 0
KME1 140607Z 26003KT 03/01 A3008 RMK A01 T00320010  RH  086%=      5-min Rain = 0
KME1 140608Z 25003KT 03/01 A3008 RMK A01 T00320011  RH  086%=      5-min Rain = 0
KME1 140609Z 23003KT 03/01 A3008 RMK A01 T00320011  RH  086%=      5-min Rain = 0
KME1 140610Z 24003KT 03/01 A3008 RMK A01 T00320010  RH  086%=      5-min Rain = 0
KME1 140611Z 25003KT 03/01 A3007 RMK A01 T00310010  RH  086%=      5-min Rain = 0
KME1 140612Z 26002KT 03/01 A3007 RMK A01 T00310010  RH  086%=      5-min Rain = 0
KME1 140613Z 26002KT 03/01 A3007 RMK A01 T00300010  RH  087%=      5-min Rain = 0
KME1 140614Z 26002KT 03/01 A3007 RMK A01 T00300010  RH  087%=      5-min Rain = 0
KME1 140615Z 25002KT 03/01 A3007 RMK A01 T00290010  RH  087%=      5-min Rain = 0
KME1 140616Z 23002KT 03/01 A3007 RMK A01 T00290010  RH  087%=      5-min Rain = 0
KME1 140617Z 23003KT 03/01 A3007 RMK A01 T00290010  RH  087%=      5-min Rain = 0
KME1 140618Z 22004KT 03/01 A3007 RMK A01 T00280009  RH  088%=      5-min Rain = 0
KME1 140619Z 23003KT 03/01 A3007 RMK A01 T00270009  RH  088%=      5-min Rain = 0
KME1 140620Z 23003KT 03/01 A3006 RMK A01 T00270010  RH  089%=      5-min Rain = 0
KME1 140621Z 24003KT 03/01 A3006 RMK A01 T00270011  RH  089%=      5-min Rain = 0
KME1 140622Z 25004KT 03/01 A3006 RMK A01 T00270012  RH  090%=      5-min Rain = 0
KME1 140623Z 26003KT 03/01 A3006 RMK A01 T00270012  RH  090%=      5-min Rain = 0
KME1 140624Z 27004KT 03/01 A3007 RMK A01 T00270012  RH  090%=      5-min Rain = 0
KME1 140625Z 28003KT 03/01 A3007 RMK A01 T00270012  RH  090%=      5-min Rain = 0
KME1 140626Z 28003KT 03/01 A3007 RMK A01 T00270012  RH  090%=      5-min Rain = 0
KME1 140627Z 29003KT 03/01 A3007 RMK A01 T00260012  RH  090%=      5-min Rain = 0
KME1 140628Z 29003KT 03/01 A3007 RMK A01 T00260012  RH  091%=      5-min Rain = 0
KME1 140629Z 28003KT 03/01 A3007 RMK A01 T00260012  RH  091%=      5-min Rain = 0
KME1 140630Z 28003KT 03/01 A3007 RMK A01 T00260012  RH  091%=      5-min Rain = 0
KME1 140631Z 27003KT 03/01 A3007 RMK A01 T00250012  RH  091%=      5-min Rain = 0
KME1 140632Z 26003KT 03/01 A3007 RMK A01 T00250012  RH  091%=      5-min Rain = 0
KME1 140633Z 26003KT 03/01 A3007 RMK A01 T00250012  RH  091%=      5-min Rain = 0
KME1 140634Z 26003KT 02/01 A3007 RMK A01 T00240012  RH  091%=      5-min Rain = 0
KME1 140635Z 25003KT 02/01 A3007 RMK A01 T00240012  RH  092%=      5-min Rain = 0
KME1 140636Z 24003KT 02/01 A3007 RMK A01 T00240011  RH  092%=      5-min Rain = 0
KME1 140637Z 23003KT 02/01 A3007 RMK A01 T00230011  RH  092%=      5-min Rain = 0
KME1 140638Z 22003KT 02/01 A3007 RMK A01 T00220011  RH  092%=      5-min Rain = 0
KME1 140639Z 20004KT 02/01 A3007 RMK A01 T00210009  RH  092%=      5-min Rain = 0
KME1 140640Z 19005KT 02/01 A3007 RMK A01 T00200008  RH  092%=      5-min Rain = 0
KME1 140641Z 19006KT 02/01 A3007 RMK A01 T00190009  RH  093%=      5-min Rain = 0
KME1 140642Z 19006KT 02/01 A3007 RMK A01 T00190011  RH  094%=      5-min Rain = 0
KME1 140643Z 18006KT 02/01 A3007 RMK A01 T00190012  RH  095%=      5-min Rain = 0
KME1 140644Z 18006KT 02/01 A3007 RMK A01 T00200014  RH  096%=      5-min Rain = 0
KME1 140645Z 18005KT 02/02 A3007 RMK A01 T00210016  RH  097%=      5-min Rain = 0
KME1 140646Z 19004KT 02/02 A3008 RMK A01 T00220017  RH  097%=      5-min Rain = 0
KME1 140647Z 20003KT 02/02 A3008 RMK A01 T00220017  RH  096%=      5-min Rain = 0
KME1 140648Z 19004KT 02/02 A3008 RMK A01 T00230016  RH  096%=      5-min Rain = 0
KME1 140649Z 20004KT 02/02 A3008 RMK A01 T00230016  RH  095%=      5-min Rain = 0
KME1 140650Z 20004KT 02/02 A3008 RMK A01 T00240016  RH  094%=      5-min Rain = 0
KME1 140651Z 21004KT 02/01 A3008 RMK A01 T00230014  RH  094%=      5-min Rain = 0
KME1 140652Z 23003KT 02/01 A3008 RMK A01 T00240014  RH  093%=      5-min Rain = 0
KME1 140653Z 24003KT 02/01 A3008 RMK A01 T00240014  RH  093%=      5-min Rain = 0
KME1 140654Z 26003KT 02/01 A3008 RMK A01 T00240014  RH  093%=      5-min Rain = 0
KME1 140655Z 27002KT 02/01 A3008 RMK A01 T00230013  RH  093%=      5-min Rain = 0
KME1 140656Z 26002KT 02/01 A3008 RMK A01 T00230013  RH  093%=      5-min Rain = 0
KME1 140657Z 22002KT 02/01 A3008 RMK A01 T00230013  RH  093%=      5-min Rain = 0
KME1 140658Z 20003KT 02/01 A3008 RMK A01 T00230013  RH  093%=      5-min Rain = 0
KME1 140659Z 20003KT 02/01 A3008 RMK A01 T00220011  RH  093%=      5-min Rain = 0
KME1 140700Z 21002KT 02/01 A3008 RMK A01 T00200010  RH  093%=      5-min Rain = 0
KME1 140701Z 26001KT 02/01 A3008 RMK A01 T00200011  RH  094%=      5-min Rain = 0
KME1 140702Z 28002KT 02/01 A3008 RMK A01 T00200011  RH  094%=      5-min Rain = 0
KME1 140703Z 28001KT 02/01 A3008 RMK A01 T00190010  RH  094%=      5-min Rain = 0
KME1 140704Z 28001KT 02/01 A3008 RMK A01 T00180010  RH  095%=      5-min Rain = 0
KME1 140705Z 28001KT 02/01 A3008 RMK A01 T00170010  RH  095%=      5-min Rain = 0
KME1 140706Z 29002KT 02/01 A3008 RMK A01 T00170010  RH  096%=      5-min Rain = 0
KME1 140707Z 29002KT 02/01 A3008 RMK A01 T00160010  RH  096%=      5-min Rain = 0
KME1 140708Z 30002KT 02/01 A3008 RMK A01 T00160011  RH  096%=      5-min Rain = 0
KME1 140709Z 30002KT 02/01 A3008 RMK A01 T00150011  RH  097%=      5-min Rain = 0
KME1 140710Z 31002KT 02/01 A3008 RMK A01 T00150011  RH  097%=      5-min Rain = 0
KME1 140711Z 29002KT 02/01 A3009 RMK A01 T00150012  RH  098%=      5-min Rain = 0
KME1 140712Z 26001KT 02/01 A3009 RMK A01 T00150013  RH  098%=      5-min Rain = 0
KME1 140713Z 24002KT 02/01 A3009 RMK A01 T00160014  RH  099%=      5-min Rain = 0
KME1 140714Z 22002KT 02/01 A3009 RMK A01 T00160014  RH  098%=      5-min Rain = 0
KME1 140715Z 22002KT 02/01 A3009 RMK A01 T00160012  RH  097%=      5-min Rain = 0
KME1 140716Z 22002KT 02/01 A3008 RMK A01 T00150010  RH  097%=      5-min Rain = 0
KME1 140717Z 23001KT 01/01 A3009 RMK A01 T00140010  RH  097%=      5-min Rain = 0
KME1 140718Z 26002KT 01/01 A3009 RMK A01 T00140010  RH  097%=      5-min Rain = 0
KME1 140719Z 26002KT 01/01 A3009 RMK A01 T00130011  RH  098%=      5-min Rain = 0
KME1 140720Z 26002KT 01/01 A3009 RMK A01 T00130011  RH  099%=      5-min Rain = 0
KME1 140721Z 27002KT 01/01 A3009 RMK A01 T00130012  RH  099%=      5-min Rain = 0
KME1 140722Z 27002KT 01/01 A3009 RMK A01 T00130012  RH  099%=      5-min Rain = 0
KME1 140723Z 26002KT 01/01 A3009 RMK A01 T00130012  RH  100%=      5-min Rain = 0
KME1 140724Z 25002KT 01/01 A3009 RMK A01 T00130013  RH  100%=      5-min Rain = 0
KME1 140725Z 24003KT 01/01 A301 RMK A01 T00130013  RH  100%=      5-min Rain = 0
KME1 140726Z 23003KT 01/01 A301 RMK A01 T00130013  RH  100%=      5-min Rain = 0
KME1 140727Z 23003KT 01/01 A301 RMK A01 T00130013  RH  100%=      5-min Rain = 0
KME1 140728Z 23003KT 01/01 A301 RMK A01 T00130013  RH  100%=      5-min Rain = 0
KME1 140729Z 23003KT 01/01 A301 RMK A01 T00120012  RH  100%=      5-min Rain = 0
KME1 140730Z 24003KT 01/01 A301 RMK A01 T00130013  RH  100%=      5-min Rain = 0
KME1 140731Z 26003KT 01/01 A301 RMK A01 T00130012  RH  100%=      5-min Rain = 0
KME1 140732Z 27003KT 01/01 A301 RMK A01 T00120012  RH  100%=      5-min Rain = 0
KME1 140733Z 26002KT 01/01 A301 RMK A01 T00130013  RH  100%=      5-min Rain = 0
KME1 140734Z 26002KT 01/01 A3011 RMK A01 T00130012  RH  100%=      5-min Rain = 0
KME1 140735Z 25001KT 01/01 A3011 RMK A01 T00130012  RH  100%=      5-min Rain = 0
KME1 140736Z 25001KT 01/01 A3011 RMK A01 T00120012  RH  100%=      5-min Rain = 0
KME1 140737Z 25001KT 01/01 A301 RMK A01 T00130012  RH  100%=      5-min Rain = 0
KME1 140738Z 25001KT 01/01 A301 RMK A01 T00130012  RH  100%=      5-min Rain = 0
KME1 140739Z 25001KT 01/01 A301 RMK A01 T00130013  RH  100%=      5-min Rain = 0
KME1 140740Z 27001KT 01/01 A301 RMK A01 T00130012  RH  100%=      5-min Rain = 0
KME1 140741Z 28001KT 01/01 A301 RMK A01 T00130013  RH  100%=      5-min Rain = 0
KME1 140742Z 28001KT 01/01 A301 RMK A01 T00130012  RH  100%=      5-min Rain = 0
KME1 140743Z 28001KT 01/01 A301 RMK A01 T00130013  RH  100%=      5-min Rain = 0
KME1 140744Z 27001KT 01/01 A301 RMK A01 T00130013  RH  100%=      5-min Rain = 0
KME1 140745Z 25001KT 01/01 A301 RMK A01 T00130013  RH  100%=      5-min Rain = 0
KME1 140746Z 24002KT 01/01 A301 RMK A01 T00130013  RH  100%=      5-min Rain = 0
KME1 140747Z 23002KT 01/01 A301 RMK A01 T00120010  RH  099%=      5-min Rain = 0
KME1 140748Z 23002KT 01/01 A301 RMK A01 T00100007  RH  098%=      5-min Rain = 0
KME1 140749Z 24002KT 01/01 A3011 RMK A01 T00090006  RH  098%=      5-min Rain = 0
KME1 140750Z 24001KT 01/01 A3011 RMK A01 T00080006  RH  099%=      5-min Rain = 0
KME1 140751Z 24001KT 01/01 A3011 RMK A01 T00080005  RH  099%=      5-min Rain = 0
KME1 140752Z 24001KT 01/01 A3011 RMK A01 T00070005  RH  098%=      5-min Rain = 0
KME1 140753Z 23001KT 01/01 A3011 RMK A01 T00070005  RH  099%=      5-min Rain = 0
KME1 140754Z 23001KT 01/01 A3011 RMK A01 T00070005  RH  099%=      5-min Rain = 0
KME1 140755Z 23000KT 01/01 A3011 RMK A01 T00070006  RH  099%=      5-min Rain = 0
KME1 140756Z 28001KT 01/01 A3011 RMK A01 T00070006  RH  100%=      5-min Rain = 0
KME1 140757Z 28001KT 01/01 A3011 RMK A01 T00060006  RH  100%=      5-min Rain = 0
KME1 140758Z 30002KT 01/01 A3011 RMK A01 T00060006  RH  100%=      5-min Rain = 0
KME1 140759Z 29001KT 01/01 A3011 RMK A01 T00060006  RH  100%=      5-min Rain = 0
KME1 140800Z 29001KT 01/01 A3011 RMK A01 T00070007  RH  100%=      5-min Rain = 0
KME1 140801Z 28001KT 01/01 A3011 RMK A01 T00070007  RH  100%=      5-min Rain = 0
KME1 140802Z 27002KT 01/01 A3011 RMK A01 T00070007  RH  100%=      5-min Rain = 0
KME1 140803Z 27002KT 01/01 A3011 RMK A01 T00070007  RH  100%=      5-min Rain = 0
KME1 140804Z 27002KT 01/01 A3011 RMK A01 T00070007  RH  100%=      5-min Rain = 0
KME1 140805Z 26002KT 01/01 A3011 RMK A01 T00070007  RH  100%=      5-min Rain = 0
KME1 140806Z 25002KT 01/01 A3011 RMK A01 T00070007  RH  100%=      5-min Rain = 0
KME1 140807Z 25002KT 01/01 A3012 RMK A01 T00080008  RH  100%=      5-min Rain = 0
KME1 140808Z 22001KT 01/01 A3012 RMK A01 T00080008  RH  100%=      5-min Rain = 0
KME1 140809Z 19001KT 01/01 A3012 RMK A01 T00080008  RH  100%=      5-min Rain = 0
KME1 140810Z 17002KT 01/01 A3012 RMK A01 T00070007  RH  100%=      5-min Rain = 0
KME1 140811Z 17002KT 01/01 A3012 RMK A01 T00070007  RH  100%=      5-min Rain = 0
KME1 140812Z 18002KT 01/01 A3012 RMK A01 T00070007  RH  100%=      5-min Rain = 0
KME1 140813Z 18003KT 01/01 A3012 RMK A01 T00070007  RH  100%=      5-min Rain = 0
KME1 140814Z 18003KT 01/01 A3012 RMK A01 T00080008  RH  100%=      5-min Rain = 0
KME1 140815Z 18002KT 01/01 A3012 RMK A01 T00090009  RH  100%=      5-min Rain = 0
KME1 140816Z 19002KT 01/01 A3012 RMK A01 T00100010  RH  100%=      5-min Rain = 0
KME1 140817Z 19001KT 01/01 A3012 RMK A01 T00100010  RH  100%=      5-min Rain = 0
KME1 140818Z 18002KT 01/01 A3012 RMK A01 T00110011  RH  100%=      5-min Rain = 0
KME1 140819Z 16001KT 01/01 A3012 RMK A01 T00120012  RH  100%=      5-min Rain = 0
KME1 140820Z 16001KT 01/01 A3012 RMK A01 T00120012  RH  100%=      5-min Rain = 0
KME1 140821Z 19001KT 01/01 A3012 RMK A01 T00120012  RH  100%=      5-min Rain = 0
KME1 140822Z 20000KT 01/01 A3012 RMK A01 T00130012  RH  100%=      5-min Rain = 0
KME1 140823Z 23000KT 01/01 A3012 RMK A01 T00130013  RH  100%=      5-min Rain = 0
KME1 140824Z 24000KT 01/01 A3012 RMK A01 T00130013  RH  100%=      5-min Rain = 0
KME1 140825Z 24000KT 01/01 A3012 RMK A01 T00130013  RH  100%=      5-min Rain = 0
KME1 140826Z 25000KT 01/01 A3012 RMK A01 T00140014  RH  100%=      5-min Rain = 0
KME1 140827Z 24000KT 01/01 A3012 RMK A01 T00140014  RH  100%=      5-min Rain = 0
KME1 140828Z 21001KT 01/01 A3012 RMK A01 T00140014  RH  100%=      5-min Rain = 0
KME1 140829Z 21001KT 01/01 A3012 RMK A01 T00140014  RH  100%=      5-min Rain = 0
KME1 140830Z 21001KT 01/01 A3012 RMK A01 T00140014  RH  100%=      5-min Rain = 0
KME1 140831Z 21000KT 02/02 A3011 RMK A01 T00150015  RH  100%=      5-min Rain = 0
KME1 140832Z 27001KT 02/02 A3011 RMK A01 T00150015  RH  100%=      5-min Rain = 0
KME1 140833Z 30001KT 02/02 A3011 RMK A01 T00160016  RH  100%=      5-min Rain = 0
KME1 140834Z 29001KT 02/02 A3012 RMK A01 T00170017  RH  100%=      5-min Rain = 0
KME1 140835Z 26001KT 02/02 A3012 RMK A01 T00170017  RH  100%=      5-min Rain = 0
KME1 140836Z 22001KT 02/02 A3012 RMK A01 T00170017  RH  100%=      5-min Rain = 0
KME1 140837Z 21001KT 02/02 A3012 RMK A01 T00180017  RH  100%=      5-min Rain = 0
KME1 140838Z 21001KT 02/02 A3012 RMK A01 T00180018  RH  100%=      5-min Rain = 0
KME1 140839Z 21001KT 02/02 A3012 RMK A01 T00180018  RH  100%=      5-min Rain = 0
KME1 140840Z 21000KT 02/02 A3012 RMK A01 T00180018  RH  100%=      5-min Rain = 0
KME1 140841Z 23001KT 02/02 A3012 RMK A01 T00180018  RH  100%=      5-min Rain = 0
KME1 140842Z 22001KT 02/02 A3012 RMK A01 T00180018  RH  100%=      5-min Rain = 0
KME1 140843Z 21001KT 02/02 A3012 RMK A01 T00190018  RH  100%=      5-min Rain = 0
KME1 140844Z 19001KT 02/02 A3013 RMK A01 T00190019  RH  100%=      5-min Rain = 0
KME1 140845Z 17001KT 02/02 A3013 RMK A01 T00190019  RH  100%=      5-min Rain = 0
KME1 140846Z 16002KT 02/02 A3013 RMK A01 T00190019  RH  100%=      5-min Rain = 0
KME1 140847Z 16002KT 02/02 A3013 RMK A01 T00190019  RH  100%=      5-min Rain = 0
KME1 140848Z 16002KT 02/02 A3013 RMK A01 T00190019  RH  100%=      5-min Rain = 0
KME1 140849Z 16002KT 02/02 A3013 RMK A01 T00200020  RH  100%=      5-min Rain = 0
KME1 140850Z 16002KT 02/02 A3013 RMK A01 T00200020  RH  100%=      5-min Rain = 0
KME1 140851Z 16002KT 02/02 A3013 RMK A01 T00200020  RH  100%=      5-min Rain = 0
KME1 140852Z 17002KT 02/02 A3013 RMK A01 T00210021  RH  100%=      5-min Rain = 0
KME1 140853Z 17001KT 02/02 A3013 RMK A01 T00210021  RH  100%=      5-min Rain = 0
KME1 140854Z 19001KT 02/02 A3013 RMK A01 T00210021  RH  100%=      5-min Rain = 0
KME1 140855Z 20000KT 02/02 A3013 RMK A01 T00220021  RH  100%=      5-min Rain = 0
KME1 140856Z 00000KT 02/02 A3013 RMK A01 T00220022  RH  100%=      5-min Rain = 0
KME1 140857Z 19000KT 02/02 A3013 RMK A01 T00220022  RH  100%=      5-min Rain = 0
KME1 140858Z 22001KT 02/02 A3013 RMK A01 T00220022  RH  100%=      5-min Rain = 0
KME1 140859Z 23001KT 02/02 A3013 RMK A01 T00220022  RH  100%=      5-min Rain = 0
KME1 140900Z 25001KT 02/02 A3013 RMK A01 T00220022  RH  100%=      5-min Rain = 0
KME1 140901Z 24003KT 02/02 A3013 RMK A01 T00220022  RH  100%=      5-min Rain = 0
KME1 140902Z 21002KT 02/02 A3013 RMK A01 T00230023  RH  100%=      5-min Rain = 0
KME1 140903Z 20003KT 02/02 A3013 RMK A01 T00240024  RH  100%=      5-min Rain = 0
KME1 140904Z 20001KT 02/02 A3013 RMK A01 T00240024  RH  100%=      5-min Rain = 0
KME1 140905Z 21001KT 03/02 A3013 RMK A01 T00250024  RH  099%=      5-min Rain = 0
KME1 140906Z 21002KT 03/02 A3013 RMK A01 T00250023  RH  099%=      5-min Rain = 0
KME1 140907Z 23002KT 03/02 A3013 RMK A01 T00250023  RH  099%=      5-min Rain = 0
KME1 140908Z 24002KT 03/02 A3013 RMK A01 T00260024  RH  099%=      5-min Rain = 0
KME1 140909Z 24002KT 03/02 A3013 RMK A01 T00260024  RH  099%=      5-min Rain = 0
KME1 140910Z 27002KT 03/02 A3013 RMK A01 T00260024  RH  098%=      5-min Rain = 0
KME1 140911Z 30002KT 03/02 A3012 RMK A01 T00270024  RH  098%=      5-min Rain = 0
KME1 140912Z 31003KT 03/02 A3012 RMK A01 T00270023  RH  097%=      5-min Rain = 0
KME1 140913Z 33003KT 03/02 A3012 RMK A01 T00270023  RH  097%=      5-min Rain = 0
KME1 140914Z 33003KT 03/02 A3012 RMK A01 T00270022  RH  097%=      5-min Rain = 0
KME1 140915Z 34003KT 03/02 A3012 RMK A01 T00270022  RH  097%=      5-min Rain = 0
KME1 140916Z 34003KT 03/02 A3012 RMK A01 T00270022  RH  097%=      5-min Rain = 0
KME1 140917Z 34002KT 03/02 A3013 RMK A01 T00270022  RH  097%=      5-min Rain = 0
KME1 140918Z 33000KT 03/02 A3013 RMK A01 T00270022  RH  097%=      5-min Rain = 0
KME1 140919Z 34000KT 03/02 A3013 RMK A01 T00270023  RH  097%=      5-min Rain = 0
KME1 140920Z 00000KT 03/02 A3013 RMK A01 T00270023  RH  097%=      5-min Rain = 0
KME1 140921Z 23000KT 03/02 A3013 RMK A01 T00270023  RH  097%=      5-min Rain = 0
KME1 140922Z 26001KT 03/02 A3013 RMK A01 T00270023  RH  097%=      5-min Rain = 0
KME1 140923Z 28001KT 03/02 A3013 RMK A01 T00270023  RH  098%=      5-min Rain = 0
KME1 140924Z 26004KT 03/02 A3013 RMK A01 T00280024  RH  098%=      5-min Rain = 0
KME1 140925Z 26005KT 03/03 A3013 RMK A01 T00280025  RH  098%=      5-min Rain = 0
KME1 140926Z 26004KT 03/03 A3013 RMK A01 T00280026  RH  098%=      5-min Rain = 0
KME1 140927Z 25004KT 03/03 A3013 RMK A01 T00290025  RH  098%=      5-min Rain = 0
KME1 140928Z 25004KT 03/03 A3013 RMK A01 T00290025  RH  097%=      5-min Rain = 0
KME1 140929Z 25005KT 03/03 A3013 RMK A01 T00300025  RH  097%=      5-min Rain = 0
KME1 140930Z 26004KT 03/03 A3013 RMK A01 T00300025  RH  096%=      5-min Rain = 0
KME1 140931Z 27005KT 03/02 A3013 RMK A01 T00300024  RH  096%=      5-min Rain = 0
KME1 140932Z 26006KT 03/02 A3013 RMK A01 T00300024  RH  096%=      5-min Rain = 0
KME1 140933Z 25005KT 03/02 A3013 RMK A01 T00300023  RH  096%=      5-min Rain = 0
KME1 140934Z 25004KT 03/02 A3013 RMK A01 T00300023  RH  095%=      5-min Rain = 0
KME1 140935Z 25004KT 03/02 A3013 RMK A01 T00300023  RH  095%=      5-min Rain = 0
KME1 140936Z 24005KT 03/02 A3013 RMK A01 T00300023  RH  095%=      5-min Rain = 0
KME1 140937Z 24005KT 03/02 A3014 RMK A01 T00300023  RH  095%=      5-min Rain = 0
KME1 140938Z 25006KT 03/02 A3014 RMK A01 T00300023  RH  095%=      5-min Rain = 0
KME1 140939Z 26004KT 03/02 A3014 RMK A01 T00310023  RH  095%=      5-min Rain = 0
KME1 140940Z 24004KT 03/02 A3014 RMK A01 T00310022  RH  094%=      5-min Rain = 0
KME1 140941Z 24004KT 03/02 A3014 RMK A01 T00300022  RH  094%=      5-min Rain = 0
KME1 140942Z 26004KT 03/02 A3014 RMK A01 T00310022  RH  094%=      5-min Rain = 0
KME1 140943Z 25003KT 03/02 A3014 RMK A01 T00310022  RH  094%=      5-min Rain = 0
KME1 140944Z 25003KT 03/02 A3014 RMK A01 T00300022  RH  094%=      5-min Rain = 0
KME1 140945Z 26003KT 03/02 A3014 RMK A01 T00310022  RH  094%=      5-min Rain = 0
KME1 140946Z 27003KT 03/02 A3014 RMK A01 T00310022  RH  094%=      5-min Rain = 0
KME1 140947Z 29004KT 03/02 A3014 RMK A01 T00300022  RH  094%=      5-min Rain = 0
KME1 140948Z 29005KT 03/02 A3014 RMK A01 T00310022  RH  094%=      5-min Rain = 0
KME1 140949Z 30004KT 03/02 A3014 RMK A01 T00310022  RH  094%=      5-min Rain = 0
KME1 140950Z 29004KT 03/02 A3014 RMK A01 T00300022  RH  094%=      5-min Rain = 0
KME1 140951Z 29004KT 03/02 A3014 RMK A01 T00310022  RH  094%=      5-min Rain = 0
KME1 140952Z 28003KT 03/02 A3014 RMK A01 T00310022  RH  094%=      5-min Rain = 0
KME1 140953Z 28003KT 03/02 A3014 RMK A01 T00300022  RH  094%=      5-min Rain = 0
KME1 140954Z 27003KT 03/02 A3014 RMK A01 T00300022  RH  094%=      5-min Rain = 0
KME1 140955Z 27003KT 03/02 A3014 RMK A01 T00300022  RH  094%=      5-min Rain = 0
KME1 140956Z 27003KT 03/02 A3014 RMK A01 T00300022  RH  094%=      5-min Rain = 0
KME1 140957Z 26003KT 03/02 A3014 RMK A01 T00300022  RH  094%=      5-min Rain = 0
KME1 140958Z 25002KT 03/02 A3014 RMK A01 T00300022  RH  095%=      5-min Rain = 0
KME1 140959Z 25002KT 03/02 A3014 RMK A01 T00300022  RH  095%=      5-min Rain = 0
KME1 141000Z 26002KT 03/02 A3014 RMK A01 T00300022  RH  095%=      5-min Rain = 0
KME1 141001Z 25002KT 03/02 A3014 RMK A01 T00300022  RH  095%=      5-min Rain = 0
KME1 141002Z 26002KT 03/02 A3014 RMK A01 T00300022  RH  095%=      5-min Rain = 0
KME1 141003Z 26002KT 03/02 A3014 RMK A01 T00300022  RH  095%=      5-min Rain = 0
KME1 141004Z 27002KT 03/02 A3014 RMK A01 T00300022  RH  095%=      5-min Rain = 0
KME1 141005Z 27002KT 03/02 A3014 RMK A01 T00300022  RH  095%=      5-min Rain = 0
KME1 141006Z 27002KT 03/02 A3014 RMK A01 T00300023  RH  095%=      5-min Rain = 0
KME1 141007Z 27002KT 03/02 A3014 RMK A01 T00300023  RH  095%=      5-min Rain = 0
KME1 141008Z 26003KT 03/02 A3014 RMK A01 T00300023  RH  095%=      5-min Rain = 0
KME1 141009Z 26003KT 03/02 A3014 RMK A01 T00300023  RH  095%=      5-min Rain = 0
KME1 141010Z 26004KT 03/02 A3014 RMK A01 T00300023  RH  095%=      5-min Rain = 0
KME1 141011Z 26004KT 03/02 A3014 RMK A01 T00300023  RH  095%=      5-min Rain = 0
KME1 141012Z 26004KT 03/02 A3014 RMK A01 T00300023  RH  095%=      5-min Rain = 0
KME1 141013Z 26004KT 03/02 A3014 RMK A01 T00300024  RH  095%=      5-min Rain = 0
KME1 141014Z 26004KT 03/02 A3014 RMK A01 T00300024  RH  096%=      5-min Rain = 0
KME1 141015Z 26003KT 03/02 A3015 RMK A01 T00300024  RH  095%=      5-min Rain = 0
KME1 141016Z 27003KT 03/02 A3015 RMK A01 T00300023  RH  095%=      5-min Rain = 0
KME1 141017Z 27002KT 03/02 A3015 RMK A01 T00300024  RH  096%=      5-min Rain = 0
KME1 141018Z 25003KT 03/02 A3015 RMK A01 T00300024  RH  096%=      5-min Rain = 0
KME1 141019Z 28003KT 03/03 A3015 RMK A01 T00310025  RH  096%=      5-min Rain = 0
KME1 141020Z 29004KT 03/03 A3015 RMK A01 T00310025  RH  096%=      5-min Rain = 0
KME1 141021Z 29004KT 03/03 A3015 RMK A01 T00300025  RH  096%=      5-min Rain = 0
KME1 141022Z 29004KT 03/03 A3015 RMK A01 T00300025  RH  096%=      5-min Rain = 0
KME1 141023Z 28003KT 03/03 A3015 RMK A01 T00300025  RH  096%=      5-min Rain = 0
KME1 141024Z 27003KT 03/03 A3015 RMK A01 T00310025  RH  096%=      5-min Rain = 0
KME1 141025Z 28004KT 03/03 A3015 RMK A01 T00310026  RH  097%=      5-min Rain = 0
KME1 141026Z 27005KT 03/03 A3015 RMK A01 T00310026  RH  097%=      5-min Rain = 0
KME1 141027Z 29005KT 03/03 A3015 RMK A01 T00310026  RH  097%=      5-min Rain = 0
KME1 141028Z 27004KT 03/03 A3015 RMK A01 T00300026  RH  097%=      5-min Rain = 0
KME1 141029Z 28004KT 03/03 A3015 RMK A01 T00310026  RH  097%=      5-min Rain = 0
KME1 141030Z 29004KT 03/03 A3015 RMK A01 T00300026  RH  097%=      5-min Rain = 0
KME1 141031Z 29005KT 03/03 A3015 RMK A01 T00310027  RH  097%=      5-min Rain = 0
KME1 141032Z 30003KT 03/03 A3015 RMK A01 T00300027  RH  097%=      5-min Rain = 0
KME1 141033Z 29003KT 03/03 A3015 RMK A01 T00310027  RH  097%=      5-min Rain = 0
KME1 141034Z 29004KT 03/03 A3015 RMK A01 T00300027  RH  098%=      5-min Rain = 0
KME1 141035Z 29003KT 03/03 A3015 RMK A01 T00300027  RH  098%=      5-min Rain = 0
KME1 141036Z 26004KT 03/03 A3015 RMK A01 T00310027  RH  098%=      5-min Rain = 0
KME1 141037Z 27003KT 03/03 A3015 RMK A01 T00300027  RH  098%=      5-min Rain = 0
KME1 141038Z 27004KT 03/03 A3015 RMK A01 T00300027  RH  098%=      5-min Rain = 0
KME1 141039Z 26005KT 03/03 A3015 RMK A01 T00300027  RH  098%=      5-min Rain = 0
KME1 141040Z 27005KT 03/03 A3015 RMK A01 T00300027  RH  098%=      5-min Rain = 0
KME1 141041Z 29004KT 03/03 A3015 RMK A01 T00300027  RH  098%=      5-min Rain = 0
KME1 141042Z 29003KT 03/03 A3015 RMK A01 T00300027  RH  098%=      5-min Rain = 0
KME1 141043Z 27003KT 03/03 A3015 RMK A01 T00300027  RH  098%=      5-min Rain = 0
KME1 141044Z 28004KT 03/03 A3015 RMK A01 T00300026  RH  098%=      5-min Rain = 0
KME1 141045Z 28004KT 03/03 A3015 RMK A01 T00300027  RH  098%=      5-min Rain = 0
KME1 141046Z 29004KT 03/03 A3015 RMK A01 T00290026  RH  098%=      5-min Rain = 0
KME1 141047Z 29005KT 03/03 A3015 RMK A01 T00290026  RH  098%=      5-min Rain = 0
KME1 141048Z 28004KT 03/03 A3015 RMK A01 T00290027  RH  099%=      5-min Rain = 0
KME1 141049Z 29004KT 03/03 A3015 RMK A01 T00290027  RH  099%=      5-min Rain = 0
KME1 141050Z 29003KT 03/03 A3015 RMK A01 T00280027  RH  099%=      5-min Rain = 0
KME1 141051Z 30003KT 03/03 A3015 RMK A01 T00280027  RH  099%=      5-min Rain = 0
KME1 141052Z 29003KT 03/03 A3015 RMK A01 T00280026  RH  099%=      5-min Rain = 0
KME1 141053Z 29004KT 03/03 A3015 RMK A01 T00270026  RH  099%=      5-min Rain = 0
KME1 141054Z 30004KT 03/03 A3015 RMK A01 T00270025  RH  099%=      5-min Rain = 0
KME1 141055Z 30004KT 03/03 A3015 RMK A01 T00260025  RH  099%=      5-min Rain = 0
KME1 141056Z 29003KT 03/03 A3015 RMK A01 T00260025  RH  099%=      5-min Rain = 0
KME1 141057Z 29004KT 03/03 A3015 RMK A01 T00250025  RH  100%=      5-min Rain = 0
KME1 141058Z 30004KT 03/03 A3015 RMK A01 T00250025  RH  100%=      5-min Rain = 0
KME1 141059Z 29004KT 03/03 A3014 RMK A01 T00260026  RH  100%=      5-min Rain = 0
KME1 141100Z 30004KT 03/03 A3014 RMK A01 T00250025  RH  100%=      5-min Rain = 0
KME1 141101Z 30004KT 03/03 A3014 RMK A01 T00250025  RH  100%=      5-min Rain = 0
KME1 141102Z 29005KT 02/02 A3014 RMK A01 T00240024  RH  100%=      5-min Rain = 0
KME1 141103Z 30004KT 02/02 A3014 RMK A01 T00240024  RH  100%=      5-min Rain = 0
KME1 141104Z 30004KT 02/02 A3014 RMK A01 T00230023  RH  100%=      5-min Rain = 0
KME1 141105Z 30004KT 02/02 A3014 RMK A01 T00230023  RH  100%=      5-min Rain = 0
KME1 141106Z 30003KT 02/02 A3014 RMK A01 T00230022  RH  100%=      5-min Rain = 0
KME1 141107Z 30003KT 02/02 A3014 RMK A01 T00220022  RH  100%=      5-min Rain = 0
KME1 141108Z 30003KT 02/02 A3014 RMK A01 T00220022  RH  100%=      5-min Rain = 0
KME1 141109Z 31003KT 02/02 A3014 RMK A01 T00220022  RH  100%=      5-min Rain = 0
KME1 141110Z 31003KT 02/02 A3014 RMK A01 T00210021  RH  100%=      5-min Rain = 0
KME1 141111Z 32003KT 02/02 A3014 RMK A01 T00210021  RH  100%=      5-min Rain = 0
KME1 141112Z 32003KT 02/02 A3014 RMK A01 T00210021  RH  100%=      5-min Rain = 0
KME1 141113Z 33003KT 02/02 A3014 RMK A01 T00200020  RH  100%=      5-min Rain = 0
KME1 141114Z 33003KT 02/02 A3014 RMK A01 T00200020  RH  100%=      5-min Rain = 0
KME1 141115Z 33004KT 02/02 A3014 RMK A01 T00200020  RH  100%=      5-min Rain = 0
KME1 141116Z 32004KT 02/02 A3014 RMK A01 T00190019  RH  100%=      5-min Rain = 0
KME1 141117Z 32004KT 02/02 A3015 RMK A01 T00180018  RH  100%=      5-min Rain = 0
KME1 141118Z 32004KT 02/02 A3015 RMK A01 T00180018  RH  100%=      5-min Rain = 0
KME1 141119Z 32005KT 02/02 A3015 RMK A01 T00180018  RH  100%=      5-min Rain = 0
KME1 141120Z 32005KT 02/02 A3015 RMK A01 T00180018  RH  100%=      5-min Rain = 0
KME1 141121Z 32005KT 02/02 A3014 RMK A01 T00180018  RH  100%=      5-min Rain = 0
KME1 141122Z 32005KT 02/02 A3014 RMK A01 T00180018  RH  100%=      5-min Rain = 0
KME1 141123Z 32005KT 02/02 A3014 RMK A01 T00170017  RH  100%=      5-min Rain = 0
KME1 141124Z 32005KT 02/02 A3014 RMK A01 T00170017  RH  100%=      5-min Rain = 0
KME1 141125Z 31005KT 02/02 A3014 RMK A01 T00170017  RH  100%=      5-min Rain = 0
KME1 141126Z 32006KT 02/02 A3014 RMK A01 T00160016  RH  100%=      5-min Rain = 0
KME1 141127Z 31005KT 02/02 A3015 RMK A01 T00160016  RH  100%=      5-min Rain = 0
KME1 141128Z 31005KT 02/02 A3015 RMK A01 T00160016  RH  100%=      5-min Rain = 0
KME1 141129Z 32004KT 02/02 A3015 RMK A01 T00160016  RH  100%=      5-min Rain = 0
KME1 141130Z 32004KT 02/02 A3015 RMK A01 T00170017  RH  100%=      5-min Rain = 0
KME1 141131Z 32003KT 02/02 A3015 RMK A01 T00170017  RH  100%=      5-min Rain = 0
KME1 141132Z 31004KT 02/02 A3015 RMK A01 T00180018  RH  100%=      5-min Rain = 0
KME1 141133Z 32003KT 02/02 A3015 RMK A01 T00180018  RH  100%=      5-min Rain = 0
KME1 141134Z 31003KT 02/02 A3015 RMK A01 T00190019  RH  100%=      5-min Rain = 0
KME1 141135Z 31002KT 02/02 A3015 RMK A01 T00190019  RH  100%=      5-min Rain = 0
KME1 141136Z 32001KT 02/02 A3015 RMK A01 T00190019  RH  100%=      5-min Rain = 0
KME1 141137Z 30001KT 02/02 A3015 RMK A01 T00200020  RH  100%=      5-min Rain = 0
KME1 141138Z 33001KT 02/02 A3015 RMK A01 T00200020  RH  100%=      5-min Rain = 0
KME1 141139Z 31002KT 02/02 A3015 RMK A01 T00200020  RH  100%=      5-min Rain = 0
KME1 141140Z 32002KT 02/02 A3015 RMK A01 T00200020  RH  100%=      5-min Rain = 0
KME1 141141Z 32003KT 02/02 A3015 RMK A01 T00200020  RH  100%=      5-min Rain = 0
KME1 141142Z 31002KT 02/02 A3015 RMK A01 T00210021  RH  100%=      5-min Rain = 0
KME1 141143Z 31002KT 02/02 A3015 RMK A01 T00210021  RH  100%=      5-min Rain = 0
KME1 141144Z 32003KT 02/02 A3015 RMK A01 T00210021  RH  100%=      5-min Rain = 0
KME1 141145Z 31004KT 02/02 A3015 RMK A01 T00210021  RH  100%=      5-min Rain = 0
KME1 141146Z 32003KT 02/02 A3015 RMK A01 T00210021  RH  100%=      5-min Rain = 0
KME1 141147Z 30005KT 02/02 A3015 RMK A01 T00220022  RH  100%=      5-min Rain = 0
KME1 141148Z 32005KT 02/02 A3016 RMK A01 T00220022  RH  100%=      5-min Rain = 0
KME1 141149Z 31005KT 02/02 A3016 RMK A01 T00220022  RH  100%=      5-min Rain = 0
KME1 141150Z 31005KT 02/02 A3016 RMK A01 T00220022  RH  100%=      5-min Rain = 0
KME1 141151Z 31005KT 02/02 A3016 RMK A01 T00220022  RH  100%=      5-min Rain = 0
KME1 141152Z 32004KT 02/02 A3016 RMK A01 T00220022  RH  100%=      5-min Rain = 0
KME1 141153Z 31004KT 02/02 A3016 RMK A01 T00220022  RH  100%=      5-min Rain = 0
KME1 141154Z 32004KT 02/02 A3016 RMK A01 T00220022  RH  100%=      5-min Rain = 0
KME1 141155Z 31003KT 02/02 A3016 RMK A01 T00220022  RH  100%=      5-min Rain = 0
KME1 141156Z 32005KT 02/02 A3016 RMK A01 T00220022  RH  100%=      5-min Rain = 0
KME1 141157Z 32004KT 02/02 A3016 RMK A01 T00220022  RH  100%=      5-min Rain = 0
KME1 141158Z 32004KT 02/02 A3016 RMK A01 T00210021  RH  100%=      5-min Rain = 0
KME1 141159Z 32004KT 02/02 A3016 RMK A01 T00210021  RH  100%=      5-min Rain = 0
KME1 141200Z 31004KT 02/02 A3016 RMK A01 T00200020  RH  100%=      5-min Rain = 0
KME1 141201Z 32004KT 02/02 A3016 RMK A01 T00200020  RH  100%=      5-min Rain = 0
KME1 141202Z 32004KT 02/02 A3016 RMK A01 T00200020  RH  100%=      5-min Rain = 0
KME1 141203Z 32004KT 02/02 A3016 RMK A01 T00200020  RH  100%=      5-min Rain = 0
KME1 141204Z 31004KT 02/02 A3016 RMK A01 T00200019  RH  100%=      5-min Rain = 0
KME1 141205Z 31004KT 02/02 A3016 RMK A01 T00200019  RH  100%=      5-min Rain = 0
KME1 141206Z 31004KT 02/02 A3017 RMK A01 T00190019  RH  100%=      5-min Rain = 0
KME1 141207Z 30005KT 02/02 A3017 RMK A01 T00190019  RH  100%=      5-min Rain = 0
KME1 141208Z 31005KT 02/02 A3017 RMK A01 T00190019  RH  100%=      5-min Rain = 0
KME1 141209Z 31004KT 02/02 A3017 RMK A01 T00190019  RH  100%=      5-min Rain = 0
KME1 141210Z 31004KT 02/02 A3017 RMK A01 T00190019  RH  100%=      5-min Rain = 0
KME1 141211Z 31004KT 02/02 A3017 RMK A01 T00190019  RH  100%=      5-min Rain = 0
KME1 141212Z 31004KT 02/02 A3017 RMK A01 T00190019  RH  100%=      5-min Rain = 0
KME1 141213Z 31005KT 02/02 A3017 RMK A01 T00190019  RH  100%=      5-min Rain = 0
KME1 141214Z 32003KT 02/02 A3017 RMK A01 T00180018  RH  100%=      5-min Rain = 0
KME1 141215Z 31003KT 02/02 A3017 RMK A01 T00180018  RH  100%=      5-min Rain = 0
KME1 141216Z 30003KT 02/02 A3017 RMK A01 T00180018  RH  100%=      5-min Rain = 0
KME1 141217Z 31004KT 02/02 A3017 RMK A01 T00170017  RH  100%=      5-min Rain = 0
KME1 141218Z 30003KT 02/02 A3017 RMK A01 T00170017  RH  100%=      5-min Rain = 0
KME1 141219Z 28002KT 02/02 A3017 RMK A01 T00170017  RH  100%=      5-min Rain = 0
KME1 141220Z 28002KT 02/02 A3017 RMK A01 T00160016  RH  100%=      5-min Rain = 0
KME1 141221Z 28002KT 02/02 A3018 RMK A01 T00160016  RH  100%=      5-min Rain = 0
KME1 141222Z 29002KT 02/02 A3018 RMK A01 T00160016  RH  100%=      5-min Rain = 0
KME1 141223Z 30002KT 02/02 A3018 RMK A01 T00160016  RH  100%=      5-min Rain = 0
KME1 141224Z 30002KT 02/02 A3018 RMK A01 T00160016  RH  100%=      5-min Rain = 0
KME1 141225Z 31002KT 02/02 A3018 RMK A01 T00160016  RH  100%=      5-min Rain = 0
KME1 141226Z 30002KT 02/02 A3018 RMK A01 T00150015  RH  100%=      5-min Rain = 0
KME1 141227Z 30002KT 02/02 A3018 RMK A01 T00150015  RH  100%=      5-min Rain = 0
KME1 141228Z 30002KT 01/01 A3018 RMK A01 T00140014  RH  100%=      5-min Rain = 0
KME1 141229Z 30002KT 01/01 A3018 RMK A01 T00130013  RH  100%=      5-min Rain = 0
KME1 141230Z 29002KT 01/01 A3018 RMK A01 T00130013  RH  100%=      5-min Rain = 0
KME1 141231Z 29004KT 01/01 A3018 RMK A01 T00130013  RH  100%=      5-min Rain = 0
KME1 141232Z 30002KT 01/01 A3018 RMK A01 T00130013  RH  100%=      5-min Rain = 0
KME1 141233Z 29002KT 01/01 A3018 RMK A01 T00130013  RH  100%=      5-min Rain = 0
KME1 141234Z 30002KT 01/01 A3019 RMK A01 T00130012  RH  100%=      5-min Rain = 0
KME1 141235Z 28001KT 01/01 A3019 RMK A01 T00130013  RH  100%=      5-min Rain = 0
KME1 141236Z 28001KT 01/01 A3019 RMK A01 T00120012  RH  100%=      5-min Rain = 0
KME1 141237Z 29001KT 01/01 A3019 RMK A01 T00120012  RH  100%=      5-min Rain = 0
KME1 141238Z 29002KT 01/01 A3019 RMK A01 T00120012  RH  100%=      5-min Rain = 0
KME1 141239Z 28001KT 01/01 A3019 RMK A01 T00120012  RH  100%=      5-min Rain = 0
KME1 141240Z 26001KT 01/01 A3019 RMK A01 T00110011  RH  100%=      5-min Rain = 0
KME1 141241Z 27001KT 01/01 A3019 RMK A01 T00110011  RH  100%=      5-min Rain = 0
KME1 141242Z 00000KT 01/01 A3019 RMK A01 T00100010  RH  100%=      5-min Rain = 0
KME1 141243Z 26000KT 01/01 A3019 RMK A01 T00100010  RH  100%=      5-min Rain = 0
KME1 141244Z 25001KT 01/01 A3019 RMK A01 T00090009  RH  100%=      5-min Rain = 0
KME1 141245Z 24001KT 01/01 A3019 RMK A01 T00090009  RH  100%=      5-min Rain = 0
KME1 141246Z 27001KT 01/01 A3019 RMK A01 T00080008  RH  100%=      5-min Rain = 0
KME1 141247Z 30001KT 01/01 A3019 RMK A01 T00070007  RH  100%=      5-min Rain = 0
KME1 141248Z 28001KT 01/01 A3019 RMK A01 T00060006  RH  100%=      5-min Rain = 0
KME1 141249Z 30001KT 01/01 A3019 RMK A01 T00060006  RH  100%=      5-min Rain = 0
KME1 141250Z 31001KT 01/01 A3019 RMK A01 T00050005  RH  100%=      5-min Rain = 0
KME1 141251Z 31001KT 00/00 A3019 RMK A01 T00040004  RH  100%=      5-min Rain = 0
KME1 141252Z 30002KT 00/00 A3019 RMK A01 T00040004  RH  100%=      5-min Rain = 0
KME1 141253Z 28001KT 00/00 A302 RMK A01 T00040003  RH  100%=      5-min Rain = 0
KME1 141254Z 28001KT 00/00 A302 RMK A01 T00040003  RH  100%=      5-min Rain = 0
KME1 141255Z 28000KT 00/00 A302 RMK A01 T00040004  RH  100%=      5-min Rain = 0
KME1 141256Z 24001KT 00/00 A302 RMK A01 T00030003  RH  100%=      5-min Rain = 0
KME1 141257Z 24001KT 00/00 A302 RMK A01 T00020002  RH  100%=      5-min Rain = 0
KME1 141258Z 24001KT 00/00 A302 RMK A01 T00010001  RH  100%=      5-min Rain = 0
KME1 141259Z 22000KT 00/00 A302 RMK A01 T00-000-1  RH  100%=      5-min Rain = 0
KME1 141300Z 25001KT M00/M00 A302 RMK A01 T10011002  RH  100%=      5-min Rain = 0
KME1 141301Z 25001KT M00/M00 A302 RMK A01 T10021002  RH  100%=      5-min Rain = 0
KME1 141302Z 25001KT M00/M00 A302 RMK A01 T10031003  RH  100%=      5-min Rain = 0
KME1 141303Z 25001KT M00/M00 A302 RMK A01 T10031004  RH  100%=      5-min Rain = 0
KME1 141304Z 23001KT M00/M00 A302 RMK A01 T10031004  RH  100%=      5-min Rain = 0
KME1 141305Z 23001KT M00/M00 A3021 RMK A01 T10031003  RH  100%=      5-min Rain = 0
KME1 141306Z 22001KT M00/M00 A3021 RMK A01 T10011001  RH  100%=      5-min Rain = 0
KME1 141307Z 24001KT 00/00 A3021 RMK A01 T00000000  RH  100%=      5-min Rain = 0
KME1 141308Z 23002KT 00/00 A3021 RMK A01 T00010001  RH  100%=      5-min Rain = 0
KME1 141309Z 23002KT 00/00 A3021 RMK A01 T00010001  RH  100%=      5-min Rain = 0
KME1 141310Z 21001KT 00/00 A3021 RMK A01 T00010001  RH  100%=      5-min Rain = 0
KME1 141311Z 20001KT 00/00 A3021 RMK A01 T00020002  RH  100%=      5-min Rain = 0
KME1 141312Z 21002KT 00/00 A3021 RMK A01 T00020002  RH  100%=      5-min Rain = 0
KME1 141313Z 21001KT 00/00 A3021 RMK A01 T00-000-0  RH  100%=      5-min Rain = 0
KME1 141314Z 22001KT M00/M00 A3021 RMK A01 T10011001  RH  100%=      5-min Rain = 0
KME1 141315Z 21001KT M00/M00 A3021 RMK A01 T10011001  RH  100%=      5-min Rain = 0
KME1 141316Z 22001KT 00/00 A3021 RMK A01 T00-000-1  RH  100%=      5-min Rain = 0
KME1 141317Z 24001KT 00/00 A3021 RMK A01 T00-000-0  RH  100%=      5-min Rain = 0
KME1 141318Z 24001KT 00/00 A3021 RMK A01 T00000000  RH  100%=      5-min Rain = 0
KME1 141319Z 25002KT 00/00 A3021 RMK A01 T00020002  RH  100%=      5-min Rain = 0
KME1 141320Z 26001KT 00/00 A3021 RMK A01 T00020002  RH  100%=      5-min Rain = 0
KME1 141321Z 26001KT 00/00 A3021 RMK A01 T00010001  RH  100%=      5-min Rain = 0
KME1 141322Z 26001KT M00/M00 A3021 RMK A01 T10011001  RH  100%=      5-min Rain = 0
KME1 141323Z 25001KT M00/M00 A3022 RMK A01 T10031003  RH  100%=      5-min Rain = 0
KME1 141324Z 25002KT M00/M00 A3022 RMK A01 T10031003  RH  100%=      5-min Rain = 0
KME1 141325Z 25001KT M00/M00 A3022 RMK A01 T10031003  RH  100%=      5-min Rain = 0
KME1 141326Z 23002KT M00/M00 A3022 RMK A01 T10031003  RH  100%=      5-min Rain = 0
KME1 141327Z 24002KT M00/M00 A3022 RMK A01 T10031003  RH  100%=      5-min Rain = 0
KME1 141328Z 23001KT M00/M00 A3022 RMK A01 T10021002  RH  100%=      5-min Rain = 0
KME1 141329Z 22001KT M00/M00 A3022 RMK A01 T10011001  RH  100%=      5-min Rain = 0
KME1 141330Z 22001KT 00/00 A3022 RMK A01 T00-000-0  RH  100%=      5-min Rain = 0
KME1 141331Z 19001KT 00/00 A3022 RMK A01 T00010001  RH  100%=      5-min Rain = 0
KME1 141332Z 16002KT 00/00 A3022 RMK A01 T00010001  RH  100%=      5-min Rain = 0
KME1 141333Z 16002KT 00/00 A3022 RMK A01 T00000000  RH  100%=      5-min Rain = 0
KME1 141334Z 16001KT 00/00 A3023 RMK A01 T00-000-0  RH  100%=      5-min Rain = 0
KME1 141335Z 16001KT M00/M00 A3023 RMK A01 T10011001  RH  100%=      5-min Rain = 0
KME1 141336Z 00000KT M00/M00 A3023 RMK A01 T10011001  RH  100%=      5-min Rain = 0
KME1 141337Z 00000KT M00/M00 A3023 RMK A01 T10011001  RH  100%=      5-min Rain = 0
KME1 141338Z 00000KT 00/00 A3023 RMK A01 T00000000  RH  100%=      5-min Rain = 0
KME1 141339Z 00000KT 00/00 A3023 RMK A01 T00020001  RH  100%=      5-min Rain = 0
KME1 141340Z 27000KT 00/00 A3023 RMK A01 T00030003  RH  100%=      5-min Rain = 0
KME1 141341Z 27001KT 00/00 A3023 RMK A01 T00040004  RH  100%=      5-min Rain = 0
KME1 141342Z 29001KT 01/01 A3023 RMK A01 T00060006  RH  100%=      5-min Rain = 0
KME1 141343Z 30002KT 01/01 A3023 RMK A01 T00070007  RH  100%=      5-min Rain = 0
KME1 141344Z 31002KT 01/01 A3023 RMK A01 T00080008  RH  100%=      5-min Rain = 0
KME1 141345Z 31002KT 01/01 A3023 RMK A01 T00090009  RH  100%=      5-min Rain = 0
KME1 141346Z 31002KT 01/01 A3023 RMK A01 T00110011  RH  100%=      5-min Rain = 0
KME1 141347Z 31001KT 01/01 A3023 RMK A01 T00130013  RH  100%=      5-min Rain = 0
KME1 141348Z 32001KT 02/02 A3023 RMK A01 T00150015  RH  100%=      5-min Rain = 0
KME1 141349Z 33001KT 02/02 A3023 RMK A01 T00160016  RH  100%=      5-min Rain = 0
KME1 141350Z 33001KT 02/02 A3024 RMK A01 T00170017  RH  100%=      5-min Rain = 0
KME1 141351Z 33001KT 02/02 A3024 RMK A01 T00180018  RH  100%=      5-min Rain = 0
KME1 141352Z 33001KT 02/02 A3024 RMK A01 T00180018  RH  100%=      5-min Rain = 0
KME1 141353Z 33001KT 02/02 A3024 RMK A01 T00190019  RH  100%=      5-min Rain = 0
KME1 141354Z 32001KT 02/02 A3024 RMK A01 T00200020  RH  100%=      5-min Rain = 0
KME1 141355Z 33001KT 02/02 A3024 RMK A01 T00200020  RH  100%=      5-min Rain = 0
KME1 141356Z 33002KT 02/02 A3024 RMK A01 T00210021  RH  100%=      5-min Rain = 0
KME1 141357Z 34001KT 02/02 A3024 RMK A01 T00210021  RH  100%=      5-min Rain = 0
KME1 141358Z 36001KT 02/02 A3024 RMK A01 T00210021  RH  100%=      5-min Rain = 0
KME1 141359Z 34001KT 02/02 A3024 RMK A01 T00220022  RH  100%=      5-min Rain = 0
KME1 141400Z 32001KT 02/02 A3024 RMK A01 T00220022  RH  100%=      5-min Rain = 0
KME1 141401Z 32002KT 02/02 A3024 RMK A01 T00230023  RH  100%=      5-min Rain = 0
KME1 141402Z 31002KT 02/02 A3024 RMK A01 T00230023  RH  100%=      5-min Rain = 0
KME1 141403Z 32003KT 02/02 A3024 RMK A01 T00240024  RH  100%=      5-min Rain = 0
KME1 141404Z 32002KT 03/02 A3024 RMK A01 T00250024  RH  100%=      5-min Rain = 0
KME1 141405Z 32002KT 03/03 A3024 RMK A01 T00260025  RH  100%=      5-min Rain = 0
KME1 141406Z 33003KT 03/03 A3024 RMK A01 T00270027  RH  100%=      5-min Rain = 0
KME1 141407Z 33003KT 03/03 A3024 RMK A01 T00270027  RH  100%=      5-min Rain = 0
KME1 141408Z 33003KT 03/03 A3024 RMK A01 T00280028  RH  100%=      5-min Rain = 0
KME1 141409Z 33003KT 03/03 A3024 RMK A01 T00280028  RH  100%=      5-min Rain = 0
KME1 141410Z 33002KT 03/03 A3024 RMK A01 T00290029  RH  100%=      5-min Rain = 0
KME1 141411Z 33002KT 03/03 A3024 RMK A01 T00300030  RH  100%=      5-min Rain = 0
KME1 141412Z 34002KT 03/03 A3024 RMK A01 T00310031  RH  100%=      5-min Rain = 0
KME1 141413Z 33002KT 03/03 A3024 RMK A01 T00320032  RH  100%=      5-min Rain = 0
KME1 141414Z 33002KT 03/03 A3024 RMK A01 T00320032  RH  100%=      5-min Rain = 0
KME1 141415Z 33003KT 03/03 A3024 RMK A01 T00330033  RH  100%=      5-min Rain = 0
KME1 141416Z 34004KT 03/03 A3024 RMK A01 T00340034  RH  100%=      5-min Rain = 0
KME1 141417Z 34004KT 04/03 A3024 RMK A01 T00350033  RH  099%=      5-min Rain = 0
KME1 141418Z 36004KT 04/03 A3025 RMK A01 T00360033  RH  098%=      5-min Rain = 0
KME1 141419Z 35004KT 04/03 A3025 RMK A01 T00370033  RH  097%=      5-min Rain = 0
KME1 141420Z 35004KT 04/03 A3025 RMK A01 T00380033  RH  096%=      5-min Rain = 0
KME1 141421Z 35006KT 04/03 A3025 RMK A01 T00390032  RH  095%=      5-min Rain = 0
KME1 141422Z 36005KT 04/03 A3025 RMK A01 T00400030  RH  093%=      5-min Rain = 0
KME1 141423Z 36005KT 04/03 A3025 RMK A01 T00410030  RH  092%=      5-min Rain = 0
KME1 141424Z 00005KT 04/03 A3025 RMK A01 T00420029  RH  091%=      5-min Rain = 0
KME1 141425Z 01006KT 04/03 A3025 RMK A01 T00430029  RH  091%=      5-min Rain = 0
KME1 141426Z 00006KT 04/03 A3025 RMK A01 T00440028  RH  089%=      5-min Rain = 0
KME1 141427Z 35007KT 05/03 A3025 RMK A01 T00450028  RH  089%=      5-min Rain = 0
KME1 141428Z 35007KT 05/03 A3025 RMK A01 T00460027  RH  087%=      5-min Rain = 0
KME1 141429Z 35006KT 05/03 A3025 RMK A01 T00460025  RH  086%=      5-min Rain = 0
KME1 141430Z 36005KT 05/02 A3026 RMK A01 T00470024  RH  085%=      5-min Rain = 0
KME1 141431Z 01006KT 05/03 A3026 RMK A01 T00480025  RH  085%=      5-min Rain = 0
KME1 141432Z 01006KT 05/03 A3026 RMK A01 T00480025  RH  085%=      5-min Rain = 0
KME1 141433Z 36007KT 05/03 A3026 RMK A01 T00490025  RH  084%=      5-min Rain = 0
KME1 141434Z 01005KT 05/02 A3026 RMK A01 T00500023  RH  083%=      5-min Rain = 0
KME1 141435Z 36005KT 05/02 A3026 RMK A01 T00510023  RH  082%=      5-min Rain = 0
KME1 141436Z 00005KT 05/02 A3026 RMK A01 T00510024  RH  083%=      5-min Rain = 0
KME1 141437Z 36006KT 05/02 A3026 RMK A01 T00520024  RH  082%=      5-min Rain = 0
KME1 141438Z 36007KT 05/02 A3026 RMK A01 T00530024  RH  082%=      5-min Rain = 0
KME1 141439Z 00009KT 06/02 A3026 RMK A01 T00550024  RH  080%=      5-min Rain = 0
KME1 141440Z 00007KT 06/02 A3026 RMK A01 T00550022  RH  079%=      5-min Rain = 0
KME1 141441Z 00007KT 06/02 A3026 RMK A01 T00550022  RH  079%=      5-min Rain = 0
KME1 141442Z 00006KT 06/02 A3026 RMK A01 T00550022  RH  079%=      5-min Rain = 0
KME1 141443Z 01008KT 06/02 A3027 RMK A01 T00560023  RH  079%=      5-min Rain = 0
KME1 141444Z 00007KT 06/02 A3027 RMK A01 T00560021  RH  078%=      5-min Rain = 0
KME1 141445Z 00008KT 06/02 A3027 RMK A01 T00560020  RH  078%=      5-min Rain = 0
KME1 141446Z 01006KT 06/02 A3027 RMK A01 T00560020  RH  077%=      5-min Rain = 0
KME1 141447Z 01009KT 06/02 A3027 RMK A01 T00560021  RH  078%=      5-min Rain = 0
KME1 141448Z 01008KT 06/02 A3027 RMK A01 T00570019  RH  077%=      5-min Rain = 0
KME1 141449Z 01006KT 06/02 A3027 RMK A01 T00560019  RH  077%=      5-min Rain = 0
KME1 141450Z 01008KT 06/02 A3027 RMK A01 T00570021  RH  077%=      5-min Rain = 0
KME1 141451Z 00009KT 06/02 A3027 RMK A01 T00580020  RH  076%=      5-min Rain = 0
KME1 141452Z 01008KT 06/02 A3027 RMK A01 T00580019  RH  076%=      5-min Rain = 0
KME1 141453Z 36008KT 06/02 A3027 RMK A01 T00580020  RH  076%=      5-min Rain = 0
KME1 141454Z 01007KT 06/02 A3027 RMK A01 T00590020  RH  076%=      5-min Rain = 0
KME1 141455Z 01007KT 06/02 A3027 RMK A01 T00600020  RH  076%=      5-min Rain = 0
KME1 141456Z 02007KT 06/02 A3027 RMK A01 T00610020  RH  075%=      5-min Rain = 0
KME1 141457Z 01009KT 06/02 A3027 RMK A01 T00610020  RH  075%=      5-min Rain = 0
KME1 141458Z 01009KT 06/02 A3027 RMK A01 T00610019  RH  074%=      5-min Rain = 0
KME1 141459Z 01009KT 06/02 A3027 RMK A01 T00600018  RH  075%=      5-min Rain = 0
KME1 141500Z 02008KT 06/02 A3027 RMK A01 T00600018  RH  075%=      5-min Rain = 0
KME1 141501Z 01008KT 06/02 A3027 RMK A01 T00600018  RH  074%=      5-min Rain = 0
KME1 141502Z 02008KT 06/02 A3028 RMK A01 T00610019  RH  074%=      5-min Rain = 0
KME1 141503Z 01009KT 06/02 A3028 RMK A01 T00620019  RH  074%=      5-min Rain = 0
KME1 141504Z 02011KT 06/02 A3028 RMK A01 T00620018  RH  073%=      5-min Rain = 0
KME1 141505Z 03010KT 06/02 A3028 RMK A01 T00620018  RH  073%=      5-min Rain = 0
KME1 141506Z 02011KT 06/02 A3028 RMK A01 T00620017  RH  073%=      5-min Rain = 0
KME1 141507Z 02009KT 06/02 A3028 RMK A01 T00620017  RH  073%=      5-min Rain = 0
KME1 141508Z 02010KT 06/02 A3028 RMK A01 T00620017  RH  073%=      5-min Rain = 0
KME1 141509Z 02012KT 06/02 A3028 RMK A01 T00620016  RH  072%=      5-min Rain = 0
KME1 141510Z 02009KT 06/02 A3028 RMK A01 T00620016  RH  072%=      5-min Rain = 0
KME1 141511Z 02009KT 06/02 A3028 RMK A01 T00630018  RH  073%=      5-min Rain = 0
KME1 141512Z 01008KT 06/02 A3028 RMK A01 T00640019  RH  073%=      5-min Rain = 0
KME1 141513Z 02006KT 07/02 A3028 RMK A01 T00660020  RH  072%=      5-min Rain = 0
KME1 141514Z 01010KT 07/02 A3028 RMK A01 T00680021  RH  072%=      5-min Rain = 0
KME1 141515Z 02009KT 07/02 A3028 RMK A01 T00680019  RH  071%=      5-min Rain = 0
KME1 141516Z 01009KT 07/02 A3029 RMK A01 T00670017  RH  070%=      5-min Rain = 0
KME1 141517Z 03010KT 07/02 A3029 RMK A01 T00670017  RH  070%=      5-min Rain = 0
KME1 141518Z 03009KT 07/02 A3029 RMK A01 T00670017  RH  071%=      5-min Rain = 0
KME1 141519Z 02010KT 07/02 A3029 RMK A01 T00680018  RH  071%=      5-min Rain = 0
KME1 141520Z 03008KT 07/02 A3029 RMK A01 T00690018  RH  070%=      5-min Rain = 0
KME1 141521Z 04009KT 07/02 A3029 RMK A01 T00690017  RH  070%=      5-min Rain = 0
KME1 141522Z 04009KT 07/02 A3029 RMK A01 T00690018  RH  070%=      5-min Rain = 0
KME1 141523Z 02007KT 07/02 A3029 RMK A01 T00720021  RH  070%=      5-min Rain = 0
KME1 141524Z 03009KT 07/02 A3029 RMK A01 T00740021  RH  069%=      5-min Rain = 0
KME1 141525Z 03008KT 07/02 A3029 RMK A01 T00740018  RH  068%=      5-min Rain = 0
KME1 141526Z 03006KT 07/02 A3029 RMK A01 T00740019  RH  068%=      5-min Rain = 0
KME1 141527Z 03009KT 08/02 A3029 RMK A01 T00770021  RH  068%=      5-min Rain = 0
KME1 141528Z 04011KT 08/02 A3029 RMK A01 T00780019  RH  066%=      5-min Rain = 0
KME1 141529Z 02010KT 08/02 A3029 RMK A01 T00780018  RH  066%=      5-min Rain = 0
KME1 141530Z 02010KT 08/02 A3029 RMK A01 T00780018  RH  066%=      5-min Rain = 0
KME1 141531Z 02008KT 08/02 A3029 RMK A01 T00780018  RH  066%=      5-min Rain = 0
KME1 141532Z 02011KT 08/02 A3029 RMK A01 T00800019  RH  065%=      5-min Rain = 0
KME1 141533Z 03012KT 08/02 A303 RMK A01 T00800016  RH  064%=      5-min Rain = 0
KME1 141534Z 02011KT 08/02 A303 RMK A01 T00800016  RH  064%=      5-min Rain = 0
KME1 141535Z 03011G16KT 08/02 A303 RMK A01 T00800015  RH  064%=      5-min Rain = 0
KME1 141536Z 03010KT 08/02 A303 RMK A01 T00800016  RH  064%=      5-min Rain = 0
KME1 141537Z 04007KT 08/02 A303 RMK A01 T00820018  RH  064%=      5-min Rain = 0
KME1 141538Z 03009KT 08/02 A303 RMK A01 T00840019  RH  064%=      5-min Rain = 0
KME1 141539Z 03010KT 09/02 A303 RMK A01 T00850017  RH  062%=      5-min Rain = 0
KME1 141540Z 03008KT 09/02 A303 RMK A01 T00850017  RH  063%=      5-min Rain = 0
KME1 141541Z 03010G15KT 09/02 A303 RMK A01 T00870020  RH  063%=      5-min Rain = 0
KME1 141542Z 02012KT 09/02 A303 RMK A01 T00890017  RH  061%=      5-min Rain = 0
KME1 141543Z 02015G21KT 09/01 A303 RMK A01 T00880014  RH  060%=      5-min Rain = 0
KME1 141544Z 03015KT 09/01 A303 RMK A01 T00870012  RH  059%=      5-min Rain = 0
KME1 141545Z 03013KT 09/01 A303 RMK A01 T00850011  RH  060%=      5-min Rain = 0
KME1 141546Z 03012KT 09/01 A303 RMK A01 T00850012  RH  060%=      5-min Rain = 0
KME1 141547Z 02013KT 09/01 A3031 RMK A01 T00860012  RH  060%=      5-min Rain = 0
KME1 141548Z 02014KT 09/01 A3031 RMK A01 T00860011  RH  059%=      5-min Rain = 0
KME1 141549Z 02015KT 09/01 A3031 RMK A01 T00860011  RH  059%=      5-min Rain = 0
KME1 141550Z 03015KT 09/01 A3031 RMK A01 T00860010  RH  059%=      5-min Rain = 0
KME1 141551Z 02014KT 09/01 A3031 RMK A01 T00870011  RH  059%=      5-min Rain = 0
KME1 141552Z 03015KT 09/01 A3031 RMK A01 T00880011  RH  059%=      5-min Rain = 0
KME1 141553Z 02013KT 09/01 A3031 RMK A01 T00880009  RH  058%=      5-min Rain = 0
KME1 141554Z 03012KT 09/01 A3031 RMK A01 T00870010  RH  058%=      5-min Rain = 0
KME1 141555Z 03014KT 09/01 A3031 RMK A01 T00890011  RH  058%=      5-min Rain = 0
KME1 141556Z 03011KT 09/01 A3031 RMK A01 T00900011  RH  058%=      5-min Rain = 0
KME1 141557Z 02012KT 09/01 A3031 RMK A01 T00910012  RH  058%=      5-min Rain = 0
KME1 141558Z 02013KT 09/01 A3031 RMK A01 T00910011  RH  057%=      5-min Rain = 0
KME1 141559Z 02012KT 09/01 A3031 RMK A01 T00920011  RH  057%=      5-min Rain = 0
KME1 141600Z 03011KT 09/01 A3031 RMK A01 T00920012  RH  057%=      5-min Rain = 0
KME1 141601Z 03012KT 09/01 A3031 RMK A01 T00930011  RH  057%=      5-min Rain = 0
KME1 141602Z 02012KT 09/01 A3031 RMK A01 T00930011  RH  057%=      5-min Rain = 0
KME1 141603Z 02012G17KT 09/01 A3031 RMK A01 T00940011  RH  056%=      5-min Rain = 0
KME1 141604Z 04010G15KT 10/01 A3031 RMK A01 T00950011  RH  056%=      5-min Rain = 0
KME1 141605Z 03012KT 10/01 A3031 RMK A01 T00960011  RH  055%=      5-min Rain = 0
KME1 141606Z 01013KT 10/01 A3031 RMK A01 T00970011  RH  055%=      5-min Rain = 0
KME1 141607Z 02014KT 10/01 A3032 RMK A01 T00980009  RH  054%=      5-min Rain = 0
KME1 141608Z 02012KT 10/01 A3032 RMK A01 T00980009  RH  054%=      5-min Rain = 0
KME1 141609Z 02010KT 10/01 A3032 RMK A01 T00990009  RH  054%=      5-min Rain = 0
KME1 141610Z 03011KT 10/01 A3032 RMK A01 T01000010  RH  054%=      5-min Rain = 0
KME1 141611Z 03012KT 10/01 A3032 RMK A01 T01020011  RH  053%=      5-min Rain = 0
KME1 141612Z 02015KT 10/01 A3032 RMK A01 T01010009  RH  053%=      5-min Rain = 0
KME1 141613Z 02015KT 10/01 A3032 RMK A01 T00990006  RH  052%=      5-min Rain = 0
KME1 141614Z 02014KT 10/01 A3032 RMK A01 T00980007  RH  053%=      5-min Rain = 0
KME1 141615Z 03012KT 10/01 A3032 RMK A01 T00980007  RH  053%=      5-min Rain = 0
KME1 141616Z 02014KT 10/01 A3032 RMK A01 T00980008  RH  053%=      5-min Rain = 0
KME1 141617Z 02015KT 10/01 A3032 RMK A01 T00980008  RH  053%=      5-min Rain = 0
KME1 141618Z 03016KT 10/01 A3032 RMK A01 T00990007  RH  053%=      5-min Rain = 0
KME1 141619Z 02013KT 10/01 A3032 RMK A01 T00980005  RH  052%=      5-min Rain = 0
KME1 141620Z 03015KT 10/01 A3032 RMK A01 T01000006  RH  052%=      5-min Rain = 0
KME1 141621Z 05013KT 10/00 A3032 RMK A01 T01010001  RH  050%=      5-min Rain = 0
KME1 141622Z 05013KT 10/00 A3032 RMK A01 T01020001  RH  050%=      5-min Rain = 0
KME1 141623Z 04015G21KT 11/00 A3033 RMK A01 T01050001  RH  049%=      5-min Rain = 0
KME1 141624Z 04014G19KT 11/M00 A3033 RMK A01 T01051002  RH  047%=      5-min Rain = 0
KME1 141625Z 04011KT 11/M00 A3033 RMK A01 T01061001  RH  048%=      5-min Rain = 0
KME1 141626Z 04014KT 11/00 A3033 RMK A01 T010700-0  RH  047%=      5-min Rain = 0
KME1 141627Z 04015KT 11/M00 A3033 RMK A01 T01071002  RH  047%=      5-min Rain = 0
KME1 141628Z 04014KT 11/M00 A3033 RMK A01 T01051003  RH  047%=      5-min Rain = 0
KME1 141629Z 03014KT 10/M00 A3033 RMK A01 T01041002  RH  048%=      5-min Rain = 0
KME1 141630Z 04014KT 11/00 A3033 RMK A01 T010500-0  RH  048%=      5-min Rain = 0
KME1 141631Z 05014G22KT 11/00 A3033 RMK A01 T010700-0  RH  047%=      5-min Rain = 0
KME1 141632Z 03016G23KT 11/00 A3033 RMK A01 T01090000  RH  047%=      5-min Rain = 0
KME1 141633Z 02013KT 11/00 A3033 RMK A01 T01080000  RH  047%=      5-min Rain = 0
KME1 141634Z 03013KT 11/00 A3033 RMK A01 T01080001  RH  047%=      5-min Rain = 0
KME1 141635Z 02016KT 11/M00 A3033 RMK A01 T01081004  RH  046%=      5-min Rain = 0
KME1 141636Z 03013KT 11/M00 A3033 RMK A01 T01071004  RH  046%=      5-min Rain = 0
KME1 141637Z 04011KT 11/M00 A3033 RMK A01 T01091001  RH  047%=      5-min Rain = 0
KME1 141638Z 03013KT 11/00 A3033 RMK A01 T011200-0  RH  046%=      5-min Rain = 0
KME1 141639Z 02014KT 11/M00 A3033 RMK A01 T01131003  RH  045%=      5-min Rain = 0
KME1 141640Z 02014KT 11/M00 A3033 RMK A01 T01121004  RH  045%=      5-min Rain = 0
KME1 141641Z 03014G20KT 11/M00 A3033 RMK A01 T01121004  RH  045%=      5-min Rain = 0
KME1 141642Z 04014KT 11/M01 A3033 RMK A01 T01131005  RH  044%=      5-min Rain = 0
KME1 141643Z 03013KT 11/M01 A3033 RMK A01 T01131005  RH  044%=      5-min Rain = 0
KME1 141644Z 03014KT 11/M01 A3033 RMK A01 T01121005  RH  044%=      5-min Rain = 0
KME1 141645Z 03016KT 11/M01 A3033 RMK A01 T01121006  RH  044%=      5-min Rain = 0
KME1 141646Z 03016KT 11/M01 A3033 RMK A01 T01111007  RH  044%=      5-min Rain = 0
KME1 141647Z 03014G19KT 11/M01 A3033 RMK A01 T01101007  RH  044%=      5-min Rain = 0
KME1 141648Z 03016G21KT 11/M01 A3033 RMK A01 T01101007  RH  044%=      5-min Rain = 0
KME1 141649Z 03015KT 11/M01 A3033 RMK A01 T01091008  RH  044%=      5-min Rain = 0
KME1 141650Z 03017KT 11/M01 A3034 RMK A01 T01081010  RH  044%=      5-min Rain = 0
KME1 141651Z 03015KT 11/M01 A3033 RMK A01 T01081010  RH  044%=      5-min Rain = 0
KME1 141652Z 03015G21KT 11/M01 A3033 RMK A01 T01091009  RH  044%=      5-min Rain = 0
KME1 141653Z 02018KT 11/M01 A3034 RMK A01 T01111009  RH  043%=      5-min Rain = 0
KME1 141654Z 03016KT 11/M01 A3034 RMK A01 T01101011  RH  043%=      5-min Rain = 0
KME1 141655Z 03013G18KT 11/M01 A3034 RMK A01 T01101008  RH  044%=      5-min Rain = 0
KME1 141656Z 03014KT 11/M01 A3034 RMK A01 T01131007  RH  043%=      5-min Rain = 0
KME1 141657Z 03012G17KT 11/M01 A3034 RMK A01 T01131007  RH  043%=      5-min Rain = 0
KME1 141658Z 05013KT 12/M01 A3034 RMK A01 T01151006  RH  043%=      5-min Rain = 0
KME1 141659Z 05015G21KT 12/M01 A3034 RMK A01 T01151007  RH  043%=      5-min Rain = 0
KME1 141700Z 04014KT 11/M01 A3034 RMK A01 T01141009  RH  043%=      5-min Rain = 0
KME1 141701Z 04017KT 11/M01 A3034 RMK A01 T01121010  RH  043%=      5-min Rain = 0
KME1 141702Z 03015KT 11/M01 A3034 RMK A01 T01101011  RH  043%=      5-min Rain = 0
KME1 141703Z 04012KT 11/M01 A3034 RMK A01 T01091011  RH  043%=      5-min Rain = 0
KME1 141704Z 03008KT 11/M01 A3034 RMK A01 T01121006  RH  044%=      5-min Rain = 0
KME1 141705Z 02012KT 12/M00 A3034 RMK A01 T01181001  RH  044%=      5-min Rain = 0
KME1 141706Z 03012KT 12/M00 A3034 RMK A01 T01201003  RH  043%=      5-min Rain = 0
KME1 141707Z 03012KT 12/M00 A3034 RMK A01 T01211004  RH  042%=      5-min Rain = 0
KME1 141708Z 02016KT 12/M01 A3034 RMK A01 T01211005  RH  042%=      5-min Rain = 0
KME1 141709Z 03015KT 12/M01 A3034 RMK A01 T01171007  RH  042%=      5-min Rain = 0
KME1 141710Z 03016G21KT 12/M01 A3034 RMK A01 T01171007  RH  042%=      5-min Rain = 0
KME1 141711Z 04012G17KT 12/M01 A3034 RMK A01 T01161007  RH  043%=      5-min Rain = 0
KME1 141712Z 03013KT 12/M01 A3034 RMK A01 T01161006  RH  043%=      5-min Rain = 0
KME1 141713Z 03014KT 12/M01 A3034 RMK A01 T01171007  RH  042%=      5-min Rain = 0
KME1 141714Z 03016KT 12/M01 A3034 RMK A01 T01161007  RH  042%=      5-min Rain = 0
KME1 141715Z 02015KT 12/M01 A3034 RMK A01 T01151008  RH  043%=      5-min Rain = 0
KME1 141716Z 04014KT 11/M01 A3034 RMK A01 T01141008  RH  043%=      5-min Rain = 0
KME1 141717Z 03014KT 12/M01 A3034 RMK A01 T01161006  RH  043%=      5-min Rain = 0
KME1 141718Z 04013KT 12/M01 A3034 RMK A01 T01171006  RH  043%=      5-min Rain = 0
KME1 141719Z 05015KT 12/M01 A3034 RMK A01 T01171006  RH  043%=      5-min Rain = 0
KME1 141720Z 05015KT 12/M01 A3034 RMK A01 T01171007  RH  042%=      5-min Rain = 0
KME1 141721Z 05013KT 12/M01 A3034 RMK A01 T01171007  RH  042%=      5-min Rain = 0
KME1 141722Z 05011KT 12/M01 A3034 RMK A01 T01161008  RH  042%=      5-min Rain = 0
KME1 141723Z 04013G20KT 12/M01 A3034 RMK A01 T01151008  RH  042%=      5-min Rain = 0
KME1 141724Z 02016KT 12/M01 A3034 RMK A01 T01181006  RH  042%=      5-min Rain = 0
KME1 141725Z 02014KT 12/M01 A3034 RMK A01 T01171009  RH  042%=      5-min Rain = 0
KME1 141726Z 01014G19KT 12/M01 A3034 RMK A01 T01171008  RH  042%=      5-min Rain = 0
KME1 141727Z 02015KT 12/M01 A3034 RMK A01 T01171010  RH  041%=      5-min Rain = 0
KME1 141728Z 02015KT 12/M01 A3034 RMK A01 T01181010  RH  041%=      5-min Rain = 0
KME1 141729Z 01013KT 12/M01 A3034 RMK A01 T01181011  RH  041%=      5-min Rain = 0
KME1 141730Z 02013KT 12/M01 A3034 RMK A01 T01191011  RH  041%=      5-min Rain = 0
KME1 141731Z 02014KT 12/M01 A3034 RMK A01 T01201010  RH  040%=      5-min Rain = 0
KME1 141732Z 02012KT 12/M01 A3034 RMK A01 T01201011  RH  040%=      5-min Rain = 0
KME1 141733Z 03010KT 12/M01 A3034 RMK A01 T01221009  RH  041%=      5-min Rain = 0
KME1 141734Z 04010KT 13/M01 A3034 RMK A01 T01251008  RH  040%=      5-min Rain = 0
KME1 141735Z 04010G16KT 13/M01 A3034 RMK A01 T01291006  RH  039%=      5-min Rain = 0
KME1 141736Z 05011G17KT 13/M01 A3034 RMK A01 T01301011  RH  038%=      5-min Rain = 0
KME1 141737Z 04014G19KT 13/M02 A3034 RMK A01 T01281015  RH  037%=      5-min Rain = 0
KME1 141738Z 03013KT 13/M02 A3034 RMK A01 T01261017  RH  037%=      5-min Rain = 0
KME1 141739Z 04015KT 12/M02 A3034 RMK A01 T01241018  RH  037%=      5-min Rain = 0
KME1 141740Z 03011KT 12/M02 A3034 RMK A01 T01231018  RH  037%=      5-min Rain = 0
KME1 141741Z 04013KT 12/M02 A3034 RMK A01 T01231017  RH  038%=      5-min Rain = 0
KME1 141742Z 03014KT 12/M02 A3034 RMK A01 T01231017  RH  038%=      5-min Rain = 0
KME1 141743Z 04014KT 12/M02 A3034 RMK A01 T01241017  RH  037%=      5-min Rain = 0
KME1 141744Z 04011KT 12/M02 A3034 RMK A01 T01241019  RH  037%=      5-min Rain = 0
KME1 141745Z 06012KT 13/M02 A3034 RMK A01 T01271018  RH  037%=      5-min Rain = 0
KME1 141746Z 06012G17KT 13/M02 A3034 RMK A01 T01271021  RH  036%=      5-min Rain = 0
KME1 141747Z 05012G19KT 13/M02 A3034 RMK A01 T01281020  RH  036%=      5-min Rain = 0
KME1 141748Z 05012G17KT 13/M02 A3034 RMK A01 T01291021  RH  035%=      5-min Rain = 0
KME1 141749Z 06009G15KT 13/M02 A3034 RMK A01 T01281022  RH  035%=      5-min Rain = 0
KME1 141750Z 04013KT 13/M02 A3034 RMK A01 T01291021  RH  035%=      5-min Rain = 0
KME1 141751Z 04015KT 13/M02 A3034 RMK A01 T01291022  RH  035%=      5-min Rain = 0
KME1 141752Z 04014G19KT 13/M02 A3034 RMK A01 T01271023  RH  035%=      5-min Rain = 0
KME1 141753Z 04016G21KT 13/M02 A3034 RMK A01 T01261022  RH  036%=      5-min Rain = 0
KME1 141754Z 03012KT 13/M02 A3034 RMK A01 T01261021  RH  036%=      5-min Rain = 0
KME1 141755Z 03013KT 13/M02 A3034 RMK A01 T01261021  RH  036%=      5-min Rain = 0
KME1 141756Z 01017KT 13/M02 A3034 RMK A01 T01251022  RH  036%=      5-min Rain = 0
KME1 141757Z 02013KT 12/M02 A3033 RMK A01 T01241021  RH  037%=      5-min Rain = 0
KME1 141758Z 05011G16KT 13/M02 A3034 RMK A01 T01251018  RH  037%=      5-min Rain = 0
KME1 141759Z 04008G13KT 13/M02 A3034 RMK A01 T01271018  RH  036%=      5-min Rain = 0
KME1 141800Z 02012KT 13/M02 A3033 RMK A01 T01291017  RH  036%=      5-min Rain = 0
KME1 141801Z 04010KT 13/M02 A3033 RMK A01 T01301018  RH  036%=      5-min Rain = 0
KME1 141802Z 03010G15KT 13/M02 A3033 RMK A01 T01311016  RH  036%=      5-min Rain = 0
KME1 141803Z 02011KT 13/M02 A3033 RMK A01 T01321017  RH  036%=      5-min Rain = 0
KME1 141804Z 03014KT 13/M02 A3033 RMK A01 T01321016  RH  036%=      5-min Rain = 0
KME1 141805Z 03016KT 13/M02 A3033 RMK A01 T01311018  RH  036%=      5-min Rain = 0
KME1 141806Z 02014KT 13/M02 A3033 RMK A01 T01271022  RH  035%=      5-min Rain = 0
KME1 141807Z 01015KT 12/M02 A3033 RMK A01 T01241024  RH  036%=      5-min Rain = 0
KME1 141808Z 01017KT 12/M03 A3033 RMK A01 T01241026  RH  035%=      5-min Rain = 0
KME1 141809Z 02016KT 12/M03 A3033 RMK A01 T01221028  RH  035%=      5-min Rain = 0
KME1 141810Z 03016KT 12/M03 A3033 RMK A01 T01231025  RH  035%=      5-min Rain = 0
KME1 141811Z 04014KT 12/M03 A3033 RMK A01 T01241026  RH  035%=      5-min Rain = 0
KME1 141812Z 04013KT 12/M03 A3033 RMK A01 T01231030  RH  035%=      5-min Rain = 0
KME1 141813Z 03013G18KT 13/M03 A3033 RMK A01 T01251029  RH  034%=      5-min Rain = 0
KME1 141814Z 03012G17KT 13/M03 A3033 RMK A01 T01261028  RH  034%=      5-min Rain = 0
KME1 141815Z 05015G21KT 13/M03 A3033 RMK A01 T01291029  RH  033%=      5-min Rain = 0
KME1 141816Z 04014KT 13/M04 A3033 RMK A01 T01271035  RH  032%=      5-min Rain = 0
KME1 141817Z 05016KT 13/M04 A3033 RMK A01 T01251035  RH  033%=      5-min Rain = 0
KME1 141818Z 03014KT 13/M03 A3033 RMK A01 T01251034  RH  033%=      5-min Rain = 0
KME1 141819Z 03013KT 12/M03 A3033 RMK A01 T01231034  RH  033%=      5-min Rain = 0
KME1 141820Z 03014KT 12/M03 A3033 RMK A01 T01231030  RH  034%=      5-min Rain = 0
KME1 141821Z 04014KT 12/M03 A3033 RMK A01 T01231031  RH  034%=      5-min Rain = 0
KME1 141822Z 05014KT 12/M04 A3033 RMK A01 T01241035  RH  033%=      5-min Rain = 0
KME1 141823Z 05015KT 12/M04 A3033 RMK A01 T01241037  RH  032%=      5-min Rain = 0
KME1 141824Z 04014KT 12/M04 A3033 RMK A01 T01231037  RH  033%=      5-min Rain = 0
KME1 141825Z 03012G18KT 12/M03 A3033 RMK A01 T01231033  RH  034%=      5-min Rain = 0
KME1 141826Z 03013KT 13/M03 A3033 RMK A01 T01261029  RH  034%=      5-min Rain = 0
KME1 141827Z 04012KT 13/M03 A3033 RMK A01 T01271031  RH  033%=      5-min Rain = 0
KME1 141828Z 04012KT 13/M03 A3033 RMK A01 T01251032  RH  033%=      5-min Rain = 0
KME1 141829Z 03012KT 12/M03 A3033 RMK A01 T01241032  RH  034%=      5-min Rain = 0
KME1 141830Z 04012KT 12/M03 A3033 RMK A01 T01241031  RH  034%=      5-min Rain = 0
KME1 141831Z 05011KT 12/M03 A3033 RMK A01 T01241031  RH  034%=      5-min Rain = 0
KME1 141832Z 07008KT 13/M03 A3033 RMK A01 T01251029  RH  034%=      5-min Rain = 0
KME1 141833Z 06009KT 13/M03 A3033 RMK A01 T01301025  RH  034%=      5-min Rain = 0
KME1 141834Z 05012KT 13/M03 A3033 RMK A01 T01331026  RH  033%=      5-min Rain = 0
KME1 141835Z 04011KT 13/M03 A3033 RMK A01 T01301029  RH  033%=      5-min Rain = 0
KME1 141836Z 05013KT 13/M03 A3033 RMK A01 T01291029  RH  033%=      5-min Rain = 0
KME1 141837Z 04012G17KT 13/M03 A3033 RMK A01 T01291030  RH  033%=      5-min Rain = 0
KME1 141838Z 03011KT 13/M03 A3033 RMK A01 T01301031  RH  032%=      5-min Rain = 0
KME1 141839Z 05013KT 13/M03 A3033 RMK A01 T01311031  RH  032%=      5-min Rain = 0
KME1 141840Z 04012KT 13/M03 A3033 RMK A01 T01321032  RH  032%=      5-min Rain = 0
KME1 141841Z 02011KT 13/M03 A3033 RMK A01 T01321031  RH  032%=      5-min Rain = 0
KME1 141842Z 02009KT 13/M03 A3033 RMK A01 T01291032  RH  032%=      5-min Rain = 0
KME1 141843Z 03011KT 13/M03 A3033 RMK A01 T01291030  RH  033%=      5-min Rain = 0
KME1 141844Z 03011KT 13/M03 A3033 RMK A01 T01291030  RH  033%=      5-min Rain = 0
KME1 141845Z 04007KT 13/M03 A3033 RMK A01 T01291030  RH  033%=      5-min Rain = 0
KME1 141846Z 04008G14KT 13/M03 A3033 RMK A01 T01311025  RH  034%=      5-min Rain = 0
KME1 141847Z 04013KT 13/M03 A3033 RMK A01 T01341025  RH  033%=      5-min Rain = 0
KME1 141848Z 05012KT 13/M03 A3033 RMK A01 T01321028  RH  033%=      5-min Rain = 0
KME1 141849Z 04011KT 13/M03 A3033 RMK A01 T01291028  RH  034%=      5-min Rain = 0
KME1 141850Z 03011KT 13/M03 A3033 RMK A01 T01291026  RH  034%=      5-min Rain = 0
KME1 141851Z 04010KT 13/M03 A3033 RMK A01 T01301026  RH  034%=      5-min Rain = 0
KME1 141852Z 05011KT 13/M03 A3033 RMK A01 T01301028  RH  033%=      5-min Rain = 0
KME1 141853Z 03010KT 13/M03 A3033 RMK A01 T01281028  RH  034%=      5-min Rain = 0
KME1 141854Z 03013G18KT 13/M03 A3033 RMK A01 T01281026  RH  034%=      5-min Rain = 0
KME1 141855Z 04012KT 13/M03 A3033 RMK A01 T01301026  RH  034%=      5-min Rain = 0
KME1 141856Z 04013KT 13/M03 A3033 RMK A01 T01321025  RH  034%=      5-min Rain = 0
KME1 141857Z 03012KT 13/M03 A3033 RMK A01 T01311027  RH  033%=      5-min Rain = 0
KME1 141858Z 02008KT 13/M03 A3033 RMK A01 T01291027  RH  034%=      5-min Rain = 0
KME1 141859Z 05011KT 13/M02 A3033 RMK A01 T01301024  RH  034%=      5-min Rain = 0
KME1 141900Z 03013KT 13/M02 A3033 RMK A01 T01321022  RH  034%=      5-min Rain = 0
KME1 141901Z 04011KT 13/M02 A3033 RMK A01 T01331022  RH  034%=      5-min Rain = 0
KME1 141902Z 04009KT 13/M02 A3033 RMK A01 T01331021  RH  034%=      5-min Rain = 0
KME1 141903Z 03008KT 14/M02 A3033 RMK A01 T01351021  RH  034%=      5-min Rain = 0
KME1 141904Z 03013G18KT 14/M02 A3033 RMK A01 T01361021  RH  033%=      5-min Rain = 0
KME1 141905Z 03013KT 14/M02 A3033 RMK A01 T01371024  RH  033%=      5-min Rain = 0
KME1 141906Z 02014KT 14/M03 A3033 RMK A01 T01351027  RH  032%=      5-min Rain = 0
KME1 141907Z 02013KT 13/M03 A3033 RMK A01 T01341027  RH  033%=      5-min Rain = 0
KME1 141908Z 02011KT 13/M03 A3032 RMK A01 T01341026  RH  033%=      5-min Rain = 0
KME1 141909Z 01009KT 14/M03 A3032 RMK A01 T01351025  RH  033%=      5-min Rain = 0
KME1 141910Z 04009KT 14/M02 A3032 RMK A01 T01371024  RH  033%=      5-min Rain = 0
KME1 141911Z 04010KT 14/M02 A3032 RMK A01 T01381024  RH  032%=      5-min Rain = 0
KME1 141912Z 03015KT 14/M02 A3032 RMK A01 T01391024  RH  032%=      5-min Rain = 0
KME1 141913Z 03011KT 14/M02 A3032 RMK A01 T01381024  RH  032%=      5-min Rain = 0
KME1 141914Z 01010KT 14/M03 A3032 RMK A01 T01381025  RH  032%=      5-min Rain = 0
KME1 141915Z 03013KT 14/M03 A3032 RMK A01 T01381026  RH  032%=      5-min Rain = 0
KME1 141916Z 03014KT 14/M02 A3032 RMK A01 T01381024  RH  032%=      5-min Rain = 0
KME1 141917Z 02016KT 14/M03 A3032 RMK A01 T01401025  RH  032%=      5-min Rain = 0
KME1 141918Z 02014KT 14/M03 A3032 RMK A01 T01381028  RH  031%=      5-min Rain = 0
KME1 141919Z 01012KT 14/M03 A3032 RMK A01 T01351029  RH  032%=      5-min Rain = 0
KME1 141920Z 01012KT 14/M03 A3032 RMK A01 T01361026  RH  032%=      5-min Rain = 0
KME1 141921Z 00013KT 14/M03 A3032 RMK A01 T01381027  RH  032%=      5-min Rain = 0
KME1 141922Z 01012KT 14/M03 A3032 RMK A01 T01391027  RH  032%=      5-min Rain = 0
KME1 141923Z 02011KT 14/M03 A3032 RMK A01 T01391028  RH  031%=      5-min Rain = 0
KME1 141924Z 04012KT 14/M03 A3032 RMK A01 T01401026  RH  032%=      5-min Rain = 0
KME1 141925Z 01011KT 14/M03 A3032 RMK A01 T01411028  RH  031%=      5-min Rain = 0
KME1 141926Z 02013G19KT 14/M03 A3032 RMK A01 T01421025  RH  031%=      5-min Rain = 0
KME1 141927Z 02016KT 14/M03 A3032 RMK A01 T01441026  RH  031%=      5-min Rain = 0
KME1 141928Z 02016KT 14/M03 A3032 RMK A01 T01391030  RH  031%=      5-min Rain = 0
KME1 141929Z 02017KT 14/M03 A3032 RMK A01 T01351031  RH  031%=      5-min Rain = 0
KME1 141930Z 02013KT 13/M03 A3032 RMK A01 T01331032  RH  032%=      5-min Rain = 0
KME1 141931Z 01012G17KT 13/M03 A3032 RMK A01 T01301034  RH  032%=      5-min Rain = 0
KME1 141932Z 02011KT 13/M03 A3032 RMK A01 T01301030  RH  033%=      5-min Rain = 0
KME1 141933Z 02012KT 13/M03 A3032 RMK A01 T01341025  RH  033%=      5-min Rain = 0
KME1 141934Z 03010KT 14/M03 A3032 RMK A01 T01351027  RH  032%=      5-min Rain = 0
KME1 141935Z 04011KT 14/M03 A3032 RMK A01 T01351027  RH  032%=      5-min Rain = 0
KME1 141936Z 04011KT 13/M03 A3032 RMK A01 T01331030  RH  032%=      5-min Rain = 0
KME1 141937Z 04010KT 13/M03 A3032 RMK A01 T01311028  RH  033%=      5-min Rain = 0
KME1 141938Z 02011G16KT 13/M03 A3032 RMK A01 T01321026  RH  033%=      5-min Rain = 0
KME1 141939Z 02015KT 14/M03 A3032 RMK A01 T01361026  RH  032%=      5-min Rain = 0
KME1 141940Z 02015KT 14/M03 A3031 RMK A01 T01371029  RH  032%=      5-min Rain = 0
KME1 141941Z 04013KT 14/M03 A3031 RMK A01 T01371029  RH  031%=      5-min Rain = 0
KME1 141942Z 03017KT 14/M03 A3031 RMK A01 T01381029  RH  031%=      5-min Rain = 0
KME1 141943Z 03014KT 14/M03 A3031 RMK A01 T01381029  RH  031%=      5-min Rain = 0
KME1 141944Z 03017KT 14/M03 A3031 RMK A01 T01401027  RH  031%=      5-min Rain = 0
KME1 141945Z 03015KT 14/M03 A3031 RMK A01 T01411028  RH  031%=      5-min Rain = 0
KME1 141946Z 02013KT 14/M03 A3031 RMK A01 T01401028  RH  031%=      5-min Rain = 0
KME1 141947Z 02011KT 14/M03 A3031 RMK A01 T01401028  RH  031%=      5-min Rain = 0
KME1 141948Z 01013KT 14/M03 A3031 RMK A01 T01401028  RH  031%=      5-min Rain = 0
KME1 141949Z 02013KT 14/M03 A3031 RMK A01 T01401029  RH  031%=      5-min Rain = 0
KME1 141950Z 03018KT 14/M03 A3031 RMK A01 T01411028  RH  031%=      5-min Rain = 0
KME1 141951Z 03014KT 14/M03 A3031 RMK A01 T01401029  RH  031%=      5-min Rain = 0
KME1 141952Z 04012KT 14/M03 A3031 RMK A01 T01391030  RH  031%=      5-min Rain = 0
KME1 141953Z 04013KT 14/M03 A3031 RMK A01 T01401029  RH  031%=      5-min Rain = 0
KME1 141954Z 03012KT 14/M03 A3031 RMK A01 T01421027  RH  031%=      5-min Rain = 0
KME1 141955Z 02016KT 14/M03 A3031 RMK A01 T01431026  RH  031%=      5-min Rain = 0
KME1 141956Z 03012KT 14/M03 A3031 RMK A01 T01431029  RH  030%=      5-min Rain = 0
KME1 141957Z 04013KT 14/M03 A3031 RMK A01 T01421029  RH  031%=      5-min Rain = 0
KME1 141958Z 05012KT 14/M03 A3031 RMK A01 T01411030  RH  031%=      5-min Rain = 0
KME1 141959Z 04010G16KT 14/M03 A3031 RMK A01 T01411028  RH  031%=      5-min Rain = 0
KME1 142000Z 03012KT 14/M03 A3031 RMK A01 T01431028  RH  031%=      5-min Rain = 0
KME1 142001Z 03011KT 14/M03 A3031 RMK A01 T01421030  RH  030%=      5-min Rain = 0
KME1 142002Z 04014G20KT 14/M03 A3031 RMK A01 T01411030  RH  030%=      5-min Rain = 0
KME1 142003Z 03015KT 14/M03 A3031 RMK A01 T01411029  RH  031%=      5-min Rain = 0
KME1 142004Z 03012KT 14/M03 A3031 RMK A01 T01411029  RH  031%=      5-min Rain = 0
KME1 142005Z 04012KT 14/M03 A3031 RMK A01 T01411029  RH  031%=      5-min Rain = 0
KME1 142006Z 04011KT 14/M03 A3031 RMK A01 T01411030  RH  031%=      5-min Rain = 0
KME1 142007Z 03009KT 14/M03 A3031 RMK A01 T01401029  RH  031%=      5-min Rain = 0
KME1 142008Z 04014G21KT 14/M03 A3031 RMK A01 T01411029  RH  031%=      5-min Rain = 0
KME1 142009Z 03015KT 14/M03 A3031 RMK A01 T01411030  RH  031%=      5-min Rain = 0
KME1 142010Z 03014KT 14/M03 A3031 RMK A01 T01421027  RH  031%=      5-min Rain = 0
KME1 142011Z 03014KT 14/M03 A3031 RMK A01 T01441027  RH  031%=      5-min Rain = 0
KME1 142012Z 02015KT 14/M03 A3031 RMK A01 T01431029  RH  030%=      5-min Rain = 0
KME1 142013Z 02012KT 14/M03 A3031 RMK A01 T01411029  RH  031%=      5-min Rain = 0
KME1 142014Z 02014KT 14/M03 A3031 RMK A01 T01411028  RH  031%=      5-min Rain = 0
KME1 142015Z 05013KT 14/M03 A3031 RMK A01 T01421027  RH  031%=      5-min Rain = 0
KME1 142016Z 06012KT 14/M03 A3031 RMK A01 T01431027  RH  031%=      5-min Rain = 0
KME1 142017Z 04010KT 14/M03 A3031 RMK A01 T01441026  RH  031%=      5-min Rain = 0
KME1 142018Z 02014KT 15/M03 A3031 RMK A01 T01461025  RH  031%=      5-min Rain = 0
KME1 142019Z 01012KT 15/M03 A3031 RMK A01 T01461027  RH  030%=      5-min Rain = 0
KME1 142020Z 02008KT 14/M03 A3031 RMK A01 T01441028  RH  030%=      5-min Rain = 0
KME1 142021Z 02011KT 14/M03 A3031 RMK A01 T01441026  RH  031%=      5-min Rain = 0
KME1 142022Z 02016KT 15/M03 A3031 RMK A01 T01451026  RH  031%=      5-min Rain = 0
KME1 142023Z 04016KT 14/M03 A3031 RMK A01 T01431026  RH  031%=      5-min Rain = 0
KME1 142024Z 04015G20KT 14/M03 A3031 RMK A01 T01431026  RH  031%=      5-min Rain = 0
KME1 142025Z 05014KT 14/M03 A3031 RMK A01 T01421026  RH  031%=      5-min Rain = 0
KME1 142026Z 02012KT 14/M03 A3031 RMK A01 T01411026  RH  031%=      5-min Rain = 0
KME1 142027Z 03012KT 14/M03 A3031 RMK A01 T01401027  RH  031%=      5-min Rain = 0
KME1 142028Z 04012KT 14/M03 A3031 RMK A01 T01401026  RH  032%=      5-min Rain = 0
KME1 142029Z 05011KT 14/M03 A3031 RMK A01 T01411026  RH  032%=      5-min Rain = 0
KME1 142030Z 05010KT 14/M02 A3031 RMK A01 T01421024  RH  032%=      5-min Rain = 0
KME1 142031Z 06010KT 15/M02 A3031 RMK A01 T01451022  RH  031%=      5-min Rain = 0
KME1 142032Z 04011G16KT 15/M02 A303 RMK A01 T01461024  RH  031%=      5-min Rain = 0
KME1 142033Z 04015G21KT 15/M02 A3031 RMK A01 T01461024  RH  031%=      5-min Rain = 0
KME1 142034Z 05012KT 14/M02 A3031 RMK A01 T01441024  RH  031%=      5-min Rain = 0
KME1 142035Z 05013KT 14/M03 A303 RMK A01 T01431025  RH  031%=      5-min Rain = 0
KME1 142036Z 04011KT 14/M03 A303 RMK A01 T01411026  RH  031%=      5-min Rain = 0
KME1 142037Z 03011KT 14/M03 A303 RMK A01 T01401026  RH  032%=      5-min Rain = 0
KME1 142038Z 02014KT 14/M02 A303 RMK A01 T01411023  RH  032%=      5-min Rain = 0
KME1 142039Z 03013KT 14/M02 A303 RMK A01 T01431023  RH  032%=      5-min Rain = 0
KME1 142040Z 05015KT 14/M02 A303 RMK A01 T01441022  RH  032%=      5-min Rain = 0
KME1 142041Z 05013KT 14/M02 A3031 RMK A01 T01441022  RH  032%=      5-min Rain = 0
KME1 142042Z 03011KT 14/M02 A303 RMK A01 T01441023  RH  032%=      5-min Rain = 0
KME1 142043Z 03013G18KT 14/M02 A303 RMK A01 T01441021  RH  032%=      5-min Rain = 0
KME1 142044Z 03013KT 15/M02 A303 RMK A01 T01451021  RH  032%=      5-min Rain = 0
KME1 142045Z 02012KT 14/M02 A303 RMK A01 T01441020  RH  032%=      5-min Rain = 0
KME1 142046Z 03014KT 14/M02 A303 RMK A01 T01441020  RH  032%=      5-min Rain = 0
KME1 142047Z 03012KT 14/M02 A3031 RMK A01 T01431023  RH  032%=      5-min Rain = 0
KME1 142048Z 01015KT 14/M02 A3031 RMK A01 T01431022  RH  032%=      5-min Rain = 0
KME1 142049Z 01011KT 14/M02 A303 RMK A01 T01421023  RH  032%=      5-min Rain = 0
KME1 142050Z 01012KT 14/M02 A303 RMK A01 T01441020  RH  032%=      5-min Rain = 0
KME1 142051Z 03010KT 14/M02 A3031 RMK A01 T01441022  RH  032%=      5-min Rain = 0
KME1 142052Z 01011KT 14/M02 A303 RMK A01 T01431023  RH  032%=      5-min Rain = 0
KME1 142053Z 01011KT 14/M02 A303 RMK A01 T01431023  RH  032%=      5-min Rain = 0
KME1 142054Z 02010KT 14/M02 A303 RMK A01 T01431022  RH  032%=      5-min Rain = 0
KME1 142055Z 03012KT 14/M02 A303 RMK A01 T01441022  RH  032%=      5-min Rain = 0
KME1 142056Z 03015KT 14/M02 A3031 RMK A01 T01441020  RH  032%=      5-min Rain = 0
KME1 142057Z 04012KT 15/M02 A3031 RMK A01 T01451021  RH  032%=      5-min Rain = 0
KME1 142058Z 03010G15KT 14/M02 A3031 RMK A01 T01431022  RH  032%=      5-min Rain = 0
KME1 142059Z 02014KT 14/M02 A3031 RMK A01 T01441021  RH  032%=      5-min Rain = 0
KME1 142100Z 01013KT 14/M02 A3031 RMK A01 T01441021  RH  032%=      5-min Rain = 0
KME1 142101Z 01014KT 14/M02 A3031 RMK A01 T01431023  RH  032%=      5-min Rain = 0
KME1 142102Z 02013KT 14/M02 A3031 RMK A01 T01411024  RH  032%=      5-min Rain = 0
KME1 142103Z 02009KT 14/M02 A3031 RMK A01 T01401023  RH  032%=      5-min Rain = 0
KME1 142104Z 03013KT 14/M02 A3031 RMK A01 T01411021  RH  033%=      5-min Rain = 0
KME1 142105Z 03009KT 14/M02 A3031 RMK A01 T01421021  RH  032%=      5-min Rain = 0
KME1 142106Z 05009KT 14/M02 A3031 RMK A01 T01441018  RH  033%=      5-min Rain = 0
KME1 142107Z 05013KT 15/M02 A3031 RMK A01 T01471018  RH  032%=      5-min Rain = 0
KME1 142108Z 03010KT 15/M02 A3031 RMK A01 T01461020  RH  032%=      5-min Rain = 0
KME1 142109Z 03013KT 15/M02 A3031 RMK A01 T01461020  RH  032%=      5-min Rain = 0
KME1 142110Z 04014KT 14/M02 A3031 RMK A01 T01441022  RH  032%=      5-min Rain = 0
KME1 142111Z 03015KT 14/M02 A3031 RMK A01 T01431022  RH  032%=      5-min Rain = 0
KME1 142112Z 02012KT 14/M02 A3031 RMK A01 T01431021  RH  032%=      5-min Rain = 0
KME1 142113Z 02014KT 14/M02 A3031 RMK A01 T01421022  RH  032%=      5-min Rain = 0
KME1 142114Z 02013KT 14/M02 A3031 RMK A01 T01411022  RH  032%=      5-min Rain = 0
KME1 142115Z 02011KT 14/M02 A3031 RMK A01 T01411022  RH  032%=      5-min Rain = 0
KME1 142116Z 03011KT 14/M02 A3031 RMK A01 T01421021  RH  032%=      5-min Rain = 0
KME1 142117Z 05010KT 14/M02 A3031 RMK A01 T01431020  RH  032%=      5-min Rain = 0
KME1 142118Z 04013KT 14/M02 A3031 RMK A01 T01441019  RH  032%=      5-min Rain = 0
KME1 142119Z 03012KT 14/M02 A3031 RMK A01 T01441021  RH  032%=      5-min Rain = 0
KME1 142120Z 01012KT 14/M02 A3031 RMK A01 T01441020  RH  032%=      5-min Rain = 0
KME1 142121Z 01009KT 14/M02 A3031 RMK A01 T01441020  RH  032%=      5-min Rain = 0
KME1 142122Z 01010KT 14/M02 A3031 RMK A01 T01441020  RH  032%=      5-min Rain = 0
KME1 142123Z 04013KT 14/M02 A3031 RMK A01 T01441021  RH  032%=      5-min Rain = 0
KME1 142124Z 04011KT 14/M02 A3031 RMK A01 T01431020  RH  032%=      5-min Rain = 0
KME1 142125Z 05010KT 14/M02 A3031 RMK A01 T01431019  RH  033%=      5-min Rain = 0
KME1 142126Z 02012KT 14/M02 A3031 RMK A01 T01441019  RH  033%=      5-min Rain = 0
KME1 142127Z 02012KT 15/M02 A3031 RMK A01 T01451019  RH  032%=      5-min Rain = 0
KME1 142128Z 02014KT 14/M02 A3031 RMK A01 T01441020  RH  032%=      5-min Rain = 0
KME1 142129Z 02013KT 14/M02 A3031 RMK A01 T01421022  RH  032%=      5-min Rain = 0
KME1 142130Z 01011KT 14/M02 A3031 RMK A01 T01401023  RH  032%=      5-min Rain = 0
KME1 142131Z 01011KT 14/M02 A3031 RMK A01 T01401022  RH  032%=      5-min Rain = 0
KME1 142132Z 02009KT 14/M02 A3031 RMK A01 T01411022  RH  032%=      5-min Rain = 0
KME1 142133Z 02011KT 14/M02 A3031 RMK A01 T01411022  RH  032%=      5-min Rain = 0
KME1 142134Z 03010KT 14/M02 A3031 RMK A01 T01421021  RH  032%=      5-min Rain = 0
KME1 142135Z 04011KT 14/M02 A3031 RMK A01 T01441019  RH  032%=      5-min Rain = 0
KME1 142136Z 02010KT 15/M02 A3031 RMK A01 T01461018  RH  032%=      5-min Rain = 0
KME1 142137Z 02009KT 15/M02 A3031 RMK A01 T01461020  RH  032%=      5-min Rain = 0
KME1 142138Z 01008KT 15/M02 A3031 RMK A01 T01451021  RH  032%=      5-min Rain = 0
KME1 142139Z 02010KT 15/M02 A3031 RMK A01 T01451019  RH  032%=      5-min Rain = 0
KME1 142140Z 04011KT 15/M02 A3031 RMK A01 T01451020  RH  032%=      5-min Rain = 0
KME1 142141Z 03011G16KT 15/M02 A3031 RMK A01 T01451019  RH  032%=      5-min Rain = 0
KME1 142142Z 02014KT 15/M02 A3031 RMK A01 T01461020  RH  032%=      5-min Rain = 0
KME1 142143Z 02012KT 14/M02 A3031 RMK A01 T01441022  RH  032%=      5-min Rain = 0
KME1 142144Z 03011KT 14/M02 A3031 RMK A01 T01421022  RH  032%=      5-min Rain = 0
KME1 142145Z 02010KT 14/M02 A3031 RMK A01 T01421022  RH  032%=      5-min Rain = 0
KME1 142146Z 02010KT 14/M02 A3031 RMK A01 T01421021  RH  032%=      5-min Rain = 0
KME1 142147Z 03010KT 14/M02 A3031 RMK A01 T01421022  RH  032%=      5-min Rain = 0
KME1 142148Z 04010KT 14/M02 A3031 RMK A01 T01411022  RH  032%=      5-min Rain = 0
KME1 142149Z 03010KT 14/M02 A3031 RMK A01 T01411021  RH  032%=      5-min Rain = 0
KME1 142150Z 03012KT 14/M02 A3031 RMK A01 T01431021  RH  032%=      5-min Rain = 0
KME1 142151Z 03013KT 14/M02 A3031 RMK A01 T01431021  RH  032%=      5-min Rain = 0
KME1 142152Z 03010KT 14/M02 A3031 RMK A01 T01431019  RH  033%=      5-min Rain = 0
KME1 142153Z 04013KT 14/M02 A3031 RMK A01 T01431019  RH  033%=      5-min Rain = 0
KME1 142154Z 03011KT 14/M02 A3031 RMK A01 T01421022  RH  032%=      5-min Rain = 0
KME1 142155Z 05008G15KT 14/M02 A3031 RMK A01 T01401022  RH  033%=      5-min Rain = 0
KME1 142156Z 04012KT 14/M02 A3031 RMK A01 T01401021  RH  033%=      5-min Rain = 0
KME1 142157Z 03015KT 14/M02 A3031 RMK A01 T01421019  RH  033%=      5-min Rain = 0
KME1 142158Z 02012KT 14/M02 A3031 RMK A01 T01411021  RH  033%=      5-min Rain = 0
KME1 142159Z 02015KT 14/M02 A3031 RMK A01 T01411021  RH  033%=      5-min Rain = 0
KME1 142200Z 03013KT 14/M02 A3031 RMK A01 T01401021  RH  033%=      5-min Rain = 0
KME1 142201Z 04010G15KT 14/M02 A3031 RMK A01 T01401021  RH  033%=      5-min Rain = 0
KME1 142202Z 04010KT 14/M02 A3031 RMK A01 T01401020  RH  033%=      5-min Rain = 0
KME1 142203Z 04010KT 14/M02 A3032 RMK A01 T01411020  RH  033%=      5-min Rain = 0
KME1 142204Z 05008KT 14/M02 A3031 RMK A01 T01411019  RH  033%=      5-min Rain = 0
KME1 142205Z 04010KT 14/M02 A3031 RMK A01 T01421019  RH  033%=      5-min Rain = 0
KME1 142206Z 03010KT 14/M02 A3031 RMK A01 T01421020  RH  033%=      5-min Rain = 0
KME1 142207Z 04010KT 14/M02 A3031 RMK A01 T01411021  RH  033%=      5-min Rain = 0
KME1 142208Z 04012KT 14/M02 A3031 RMK A01 T01401021  RH  033%=      5-min Rain = 0
KME1 142209Z 04011KT 14/M02 A3031 RMK A01 T01401021  RH  033%=      5-min Rain = 0
KME1 142210Z 05009KT 14/M02 A3031 RMK A01 T01401021  RH  033%=      5-min Rain = 0
KME1 142211Z 03008KT 14/M02 A3031 RMK A01 T01401020  RH  033%=      5-min Rain = 0
KME1 142212Z 03012KT 14/M02 A3032 RMK A01 T01411019  RH  033%=      5-min Rain = 0
KME1 142213Z 04012KT 14/M02 A3032 RMK A01 T01411020  RH  033%=      5-min Rain = 0
KME1 142214Z 03012KT 14/M02 A3032 RMK A01 T01391022  RH  033%=      5-min Rain = 0
KME1 142215Z 04013KT 14/M02 A3032 RMK A01 T01381022  RH  033%=      5-min Rain = 0
KME1 142216Z 04011KT 14/M02 A3032 RMK A01 T01381022  RH  033%=      5-min Rain = 0
KME1 142217Z 05013KT 14/M02 A3032 RMK A01 T01371021  RH  033%=      5-min Rain = 0
KME1 142218Z 04013KT 14/M02 A3032 RMK A01 T01371021  RH  033%=      5-min Rain = 0
KME1 142219Z 02013KT 14/M02 A3032 RMK A01 T01371021  RH  033%=      5-min Rain = 0
KME1 142220Z 02011KT 14/M02 A3032 RMK A01 T01361022  RH  033%=      5-min Rain = 0
KME1 142221Z 03014KT 14/M02 A3032 RMK A01 T01351021  RH  034%=      5-min Rain = 0
KME1 142222Z 03012KT 14/M02 A3032 RMK A01 T01351022  RH  034%=      5-min Rain = 0
KME1 142223Z 02013KT 14/M02 A3032 RMK A01 T01351021  RH  034%=      5-min Rain = 0
KME1 142224Z 03010KT 13/M02 A3032 RMK A01 T01341022  RH  034%=      5-min Rain = 0
KME1 142225Z 03007KT 13/M02 A3032 RMK A01 T01341021  RH  034%=      5-min Rain = 0
KME1 142226Z 04007KT 14/M02 A3032 RMK A01 T01361019  RH  034%=      5-min Rain = 0
KME1 142227Z 05008KT 14/M02 A3032 RMK A01 T01371019  RH  034%=      5-min Rain = 0
KME1 142228Z 04008G13KT 14/M02 A3032 RMK A01 T01381019  RH  034%=      5-min Rain = 0
KME1 142229Z 04012KT 14/M02 A3032 RMK A01 T01381019  RH  034%=      5-min Rain = 0
KME1 142230Z 04011KT 14/M02 A3032 RMK A01 T01371021  RH  033%=      5-min Rain = 0
KME1 142231Z 04009KT 14/M02 A3032 RMK A01 T01351021  RH  034%=      5-min Rain = 0
KME1 142232Z 04008KT 14/M02 A3032 RMK A01 T01351021  RH  034%=      5-min Rain = 0
KME1 142233Z 04008KT 14/M02 A3032 RMK A01 T01351020  RH  034%=      5-min Rain = 0
KME1 142234Z 03007KT 14/M02 A3032 RMK A01 T01351020  RH  034%=      5-min Rain = 0
KME1 142235Z 03010KT 14/M02 A3032 RMK A01 T01361019  RH  034%=      5-min Rain = 0
KME1 142236Z 03009KT 14/M02 A3032 RMK A01 T01361020  RH  034%=      5-min Rain = 0
KME1 142237Z 04010KT 14/M02 A3032 RMK A01 T01351020  RH  034%=      5-min Rain = 0
KME1 142238Z 04012KT 13/M02 A3032 RMK A01 T01341020  RH  034%=      5-min Rain = 0
KME1 142239Z 05012KT 13/M02 A3032 RMK A01 T01341021  RH  034%=      5-min Rain = 0
KME1 142240Z 04010KT 13/M02 A3032 RMK A01 T01331021  RH  034%=      5-min Rain = 0
KME1 142241Z 04008KT 13/M02 A3032 RMK A01 T01321020  RH  035%=      5-min Rain = 0
KME1 142242Z 04009KT 13/M02 A3032 RMK A01 T01331020  RH  035%=      5-min Rain = 0
KME1 142243Z 05008KT 13/M02 A3032 RMK A01 T01321020  RH  035%=      5-min Rain = 0
KME1 142244Z 04009KT 13/M02 A3032 RMK A01 T01321020  RH  035%=      5-min Rain = 0
KME1 142245Z 04007KT 13/M02 A3032 RMK A01 T01331019  RH  035%=      5-min Rain = 0
KME1 142246Z 03010KT 13/M02 A3032 RMK A01 T01321019  RH  035%=      5-min Rain = 0
KME1 142247Z 03011KT 13/M02 A3032 RMK A01 T01321020  RH  035%=      5-min Rain = 0
KME1 142248Z 04010KT 13/M02 A3032 RMK A01 T01321020  RH  035%=      5-min Rain = 0
KME1 142249Z 03011KT 13/M02 A3032 RMK A01 T01311021  RH  035%=      5-min Rain = 0
KME1 142250Z 03010KT 13/M02 A3032 RMK A01 T01301021  RH  035%=      5-min Rain = 0
KME1 142251Z 04007KT 13/M02 A3032 RMK A01 T01301020  RH  035%=      5-min Rain = 0
KME1 142252Z 04008KT 13/M02 A3032 RMK A01 T01301020  RH  035%=      5-min Rain = 0
KME1 142253Z 04009KT 13/M02 A3032 RMK A01 T01301020  RH  035%=      5-min Rain = 0
KME1 142254Z 03007KT 13/M02 A3033 RMK A01 T01291020  RH  036%=      5-min Rain = 0
KME1 142255Z 03009KT 13/M02 A3033 RMK A01 T01291019  RH  036%=      5-min Rain = 0
KME1 142256Z 03010KT 13/M02 A3033 RMK A01 T01291019  RH  036%=      5-min Rain = 0
KME1 142257Z 04009KT 13/M02 A3033 RMK A01 T01291020  RH  036%=      5-min Rain = 0
KME1 142258Z 03010KT 13/M02 A3033 RMK A01 T01281019  RH  036%=      5-min Rain = 0
KME1 142259Z 03009KT 13/M02 A3033 RMK A01 T01281020  RH  036%=      5-min Rain = 0
KME1 142300Z 04010KT 13/M02 A3033 RMK A01 T01281020  RH  036%=      5-min Rain = 0
KME1 142301Z 04009KT 13/M02 A3033 RMK A01 T01281020  RH  036%=      5-min Rain = 0
KME1 142302Z 04009KT 13/M02 A3033 RMK A01 T01271020  RH  036%=      5-min Rain = 0
KME1 142303Z 04010KT 13/M02 A3033 RMK A01 T01271020  RH  036%=      5-min Rain = 0
KME1 142304Z 04008KT 13/M02 A3033 RMK A01 T01271021  RH  036%=      5-min Rain = 0
KME1 142305Z 05010KT 13/M02 A3033 RMK A01 T01261021  RH  036%=      5-min Rain = 0
KME1 142306Z 04007KT 13/M02 A3033 RMK A01 T01261021  RH  036%=      5-min Rain = 0
KME1 142307Z 03006KT 13/M02 A3033 RMK A01 T01251020  RH  036%=      5-min Rain = 0
KME1 142308Z 03008KT 13/M02 A3033 RMK A01 T01251019  RH  037%=      5-min Rain = 0
KME1 142309Z 03009KT 12/M02 A3034 RMK A01 T01241020  RH  037%=      5-min Rain = 0
KME1 142310Z 02008KT 12/M02 A3034 RMK A01 T01241020  RH  036%=      5-min Rain = 0
KME1 142311Z 02009KT 12/M02 A3034 RMK A01 T01241021  RH  037%=      5-min Rain = 0
KME1 142312Z 03010KT 12/M02 A3034 RMK A01 T01241021  RH  037%=      5-min Rain = 0
KME1 142313Z 03010KT 12/M02 A3034 RMK A01 T01231021  RH  037%=      5-min Rain = 0
KME1 142314Z 03009KT 12/M02 A3034 RMK A01 T01231021  RH  037%=      5-min Rain = 0
KME1 142315Z 03009KT 12/M02 A3034 RMK A01 T01221021  RH  037%=      5-min Rain = 0
KME1 142316Z 03010KT 12/M02 A3034 RMK A01 T01221022  RH  037%=      5-min Rain = 0
KME1 142317Z 03009KT 12/M02 A3034 RMK A01 T01221022  RH  037%=      5-min Rain = 0
KME1 142318Z 03009KT 12/M02 A3034 RMK A01 T01211021  RH  037%=      5-min Rain = 0
KME1 142319Z 04009KT 12/M02 A3034 RMK A01 T01211022  RH  037%=      5-min Rain = 0
KME1 142320Z 03008KT 12/M02 A3034 RMK A01 T01201022  RH  037%=      5-min Rain = 0
KME1 142321Z 03008KT 12/M02 A3034 RMK A01 T01201022  RH  037%=      5-min Rain = 0
KME1 142322Z 03009KT 12/M02 A3034 RMK A01 T01191022  RH  037%=      5-min Rain = 0
KME1 142323Z 02010KT 12/M02 A3034 RMK A01 T01181023  RH  037%=      5-min Rain = 0
KME1 142324Z 02008KT 12/M02 A3034 RMK A01 T01181023  RH  037%=      5-min Rain = 0
KME1 142325Z 02007KT 12/M02 A3034 RMK A01 T01181022  RH  038%=      5-min Rain = 0
KME1 142326Z 02008KT 12/M02 A3034 RMK A01 T01171022  RH  038%=      5-min Rain = 0
KME1 142327Z 02008KT 12/M02 A3034 RMK A01 T01161023  RH  038%=      5-min Rain = 0
KME1 142328Z 02008KT 12/M02 A3034 RMK A01 T01161023  RH  038%=      5-min Rain = 0
KME1 142329Z 02007KT 12/M02 A3034 RMK A01 T01151022  RH  038%=      5-min Rain = 0
KME1 142330Z 02007KT 11/M02 A3034 RMK A01 T01141022  RH  038%=      5-min Rain = 0
KME1 142331Z 02007KT 11/M02 A3034 RMK A01 T01131023  RH  039%=      5-min Rain = 0
KME1 142332Z 03008KT 11/M02 A3034 RMK A01 T01121023  RH  039%=      5-min Rain = 0
KME1 142333Z 03007KT 11/M02 A3034 RMK A01 T01121023  RH  039%=      5-min Rain = 0
KME1 142334Z 02007KT 11/M02 A3034 RMK A01 T01111023  RH  039%=      5-min Rain = 0
KME1 142335Z 03006KT 11/M02 A3034 RMK A01 T01101023  RH  040%=      5-min Rain = 0
KME1 142336Z 02007KT 11/M02 A3034 RMK A01 T01081023  RH  040%=      5-min Rain = 0
KME1 142337Z 02009KT 11/M02 A3035 RMK A01 T01081024  RH  040%=      5-min Rain = 0
KME1 142338Z 02007KT 11/M02 A3035 RMK A01 T01081024  RH  040%=      5-min Rain = 0
KME1 142339Z 02007KT 11/M02 A3035 RMK A01 T01081024  RH  040%=      5-min Rain = 0
KME1 142340Z 02007KT 11/M02 A3035 RMK A01 T01071024  RH  040%=      5-min Rain = 0
KME1 142341Z 02007KT 11/M02 A3035 RMK A01 T01061024  RH  040%=      5-min Rain = 0
KME1 142342Z 02007KT 10/M02 A3035 RMK A01 T01041024  RH  040%=      5-min Rain = 0
KME1 142343Z 01006KT 10/M02 A3035 RMK A01 T01041024  RH  041%=      5-min Rain = 0
KME1 142344Z 02006KT 10/M02 A3035 RMK A01 T01031024  RH  041%=      5-min Rain = 0
KME1 142345Z 02007KT 10/M02 A3035 RMK A01 T01021024  RH  041%=      5-min Rain = 0
KME1 142346Z 02006KT 10/M02 A3035 RMK A01 T01011024  RH  041%=      5-min Rain = 0
KME1 142347Z 02007KT 10/M02 A3035 RMK A01 T01001024  RH  042%=      5-min Rain = 0
KME1 142348Z 02008KT 10/M02 A3035 RMK A01 T00991024  RH  042%=      5-min Rain = 0
KME1 142349Z 02007KT 10/M02 A3035 RMK A01 T00991024  RH  042%=      5-min Rain = 0
KME1 142350Z 02007KT 10/M02 A3035 RMK A01 T00981024  RH  042%=      5-min Rain = 0
KME1 142351Z 02006KT 10/M02 A3035 RMK A01 T00971024  RH  042%=      5-min Rain = 0
KME1 142352Z 01007KT 10/M02 A3035 RMK A01 T00961024  RH  043%=      5-min Rain = 0
KME1 142353Z 01006KT 10/M02 A3035 RMK A01 T00961024  RH  043%=      5-min Rain = 0
KME1 142354Z 01006KT 09/M03 A3035 RMK A01 T00941025  RH  043%=      5-min Rain = 0
KME1 142355Z 01006KT 09/M02 A3035 RMK A01 T00931024  RH  044%=      5-min Rain = 0
KME1 142356Z 01006KT 09/M02 A3035 RMK A01 T00911024  RH  044%=      5-min Rain = 0
KME1 142357Z 01006KT 09/M02 A3035 RMK A01 T00901024  RH  045%=      5-min Rain = 0
KME1 142358Z 01006KT 09/M03 A3035 RMK A01 T00881025  RH  045%=      5-min Rain = 0
KME1 142359Z 01006KT 09/M03 A3035 RMK A01 T00871025  RH  045%=      5-min Rain = 0
KME1 150000Z 01006KT 09/M03 A3036 RMK A01 T00861025  RH  046%=      5-min Rain = 0
KME1 150001Z 01006KT 09/M02 A3036 RMK A01 T00851024  RH  046%=      5-min Rain = 0
KME1 150002Z 01006KT 09/M02 A3036 RMK A01 T00851024  RH  046%=      5-min Rain = 0
KME1 150003Z 01006KT 08/M02 A3036 RMK A01 T00841024  RH  047%=      5-min Rain = 0
KME1 150004Z 01006KT 08/M02 A3036 RMK A01 T00841024  RH  047%=      5-min Rain = 0
KME1 150005Z 01006KT 08/M02 A3036 RMK A01 T00831024  RH  047%=      5-min Rain = 0
KME1 150006Z 01006KT 08/M02 A3036 RMK A01 T00831024  RH  047%=      5-min Rain = 0
KME1 150007Z 01005KT 08/M02 A3036 RMK A01 T00811024  RH  047%=      5-min Rain = 0
KME1 150008Z 00005KT 08/M02 A3036 RMK A01 T00801024  RH  048%=      5-min Rain = 0
KME1 150009Z 00005KT 08/M02 A3036 RMK A01 T00791024  RH  048%=      5-min Rain = 0
KME1 150010Z 36005KT 08/M02 A3036 RMK A01 T00781024  RH  048%=      5-min Rain = 0
KME1 150011Z 00005KT 08/M02 A3036 RMK A01 T00771023  RH  049%=      5-min Rain = 0
KME1 150012Z 36005KT 08/M02 A3036 RMK A01 T00771023  RH  049%=      5-min Rain = 0
KME1 150013Z 36005KT 08/M02 A3036 RMK A01 T00771023  RH  049%=      5-min Rain = 0
KME1 150014Z 35005KT 08/M02 A3036 RMK A01 T00761023  RH  049%=      5-min Rain = 0
KME1 150015Z 35006KT 08/M02 A3036 RMK A01 T00761023  RH  050%=      5-min Rain = 0
KME1 150016Z 36006KT 08/M02 A3036 RMK A01 T00751023  RH  050%=      5-min Rain = 0
KME1 150017Z 36006KT 08/M02 A3036 RMK A01 T00751023  RH  050%=      5-min Rain = 0
KME1 150018Z 36006KT 07/M02 A3036 RMK A01 T00741023  RH  050%=      5-min Rain = 0
KME1 150019Z 36006KT 08/M02 A3036 RMK A01 T00751022  RH  050%=      5-min Rain = 0
KME1 150020Z 36006KT 08/M02 A3036 RMK A01 T00751022  RH  050%=      5-min Rain = 0
KME1 150021Z 00006KT 07/M02 A3036 RMK A01 T00741023  RH  050%=      5-min Rain = 0
KME1 150022Z 36005KT 07/M02 A3036 RMK A01 T00741022  RH  050%=      5-min Rain = 0
KME1 150023Z 36006KT 07/M02 A3037 RMK A01 T00741022  RH  051%=      5-min Rain = 0
KME1 150024Z 36006KT 07/M02 A3037 RMK A01 T00741022  RH  051%=      5-min Rain = 0
KME1 150025Z 36006KT 07/M02 A3037 RMK A01 T00741021  RH  051%=      5-min Rain = 0
KME1 150026Z 36006KT 07/M02 A3037 RMK A01 T00731022  RH  051%=      5-min Rain = 0
KME1 150027Z 00006KT 07/M02 A3037 RMK A01 T00731022  RH  051%=      5-min Rain = 0
KME1 150028Z 35006KT 07/M02 A3037 RMK A01 T00731022  RH  051%=      5-min Rain = 0
KME1 150029Z 36006KT 07/M02 A3037 RMK A01 T00731021  RH  051%=      5-min Rain = 0
KME1 150030Z 36006KT 07/M02 A3037 RMK A01 T00731021  RH  051%=      5-min Rain = 0
KME1 150031Z 36006KT 07/M02 A3037 RMK A01 T00741021  RH  051%=      5-min Rain = 0
KME1 150032Z 36006KT 07/M02 A3037 RMK A01 T00731021  RH  051%=      5-min Rain = 0
KME1 150033Z 36006KT 07/M02 A3037 RMK A01 T00741020  RH  051%=      5-min Rain = 0
KME1 150034Z 36006KT 07/M02 A3037 RMK A01 T00731020  RH  051%=      5-min Rain = 0
KME1 150035Z 36006KT 07/M02 A3037 RMK A01 T00731020  RH  051%=      5-min Rain = 0
KME1 150036Z 36006KT 07/M02 A3037 RMK A01 T00731020  RH  052%=      5-min Rain = 0
KME1 150037Z 36007KT 07/M02 A3037 RMK A01 T00721020  RH  052%=      5-min Rain = 0
KME1 150038Z 36006KT 07/M02 A3037 RMK A01 T00711020  RH  052%=      5-min Rain = 0
KME1 150039Z 00007KT 07/M02 A3037 RMK A01 T00701020  RH  052%=      5-min Rain = 0
KME1 150040Z 00007KT 07/M02 A3037 RMK A01 T00701020  RH  053%=      5-min Rain = 0
KME1 150041Z 36006KT 07/M02 A3037 RMK A01 T00691020  RH  053%=      5-min Rain = 0
KME1 150042Z 36007KT 07/M02 A3037 RMK A01 T00691020  RH  053%=      5-min Rain = 0
KME1 150043Z 36006KT 07/M02 A3037 RMK A01 T00681020  RH  053%=      5-min Rain = 0
KME1 150044Z 36006KT 07/M02 A3037 RMK A01 T00681021  RH  053%=      5-min Rain = 0
KME1 150045Z 36006KT 07/M02 A3037 RMK A01 T00681021  RH  053%=      5-min Rain = 0
KME1 150046Z 35006KT 07/M02 A3037 RMK A01 T00681020  RH  053%=      5-min Rain = 0
KME1 150047Z 35006KT 07/M02 A3037 RMK A01 T00681020  RH  053%=      5-min Rain = 0
KME1 150048Z 35006KT 07/M02 A3037 RMK A01 T00671021  RH  054%=      5-min Rain = 0
KME1 150049Z 35006KT 07/M02 A3037 RMK A01 T00671021  RH  054%=      5-min Rain = 0
KME1 150050Z 34005KT 07/M02 A3037 RMK A01 T00661021  RH  054%=      5-min Rain = 0
KME1 150051Z 34006KT 07/M02 A3037 RMK A01 T00651021  RH  054%=      5-min Rain = 0
KME1 150052Z 34006KT 06/M02 A3037 RMK A01 T00641021  RH  054%=      5-min Rain = 0
KME1 150053Z 35006KT 06/M02 A3037 RMK A01 T00631021  RH  055%=      5-min Rain = 0
KME1 150054Z 34006KT 06/M02 A3037 RMK A01 T00631021  RH  055%=      5-min Rain = 0
KME1 150055Z 35006KT 06/M02 A3038 RMK A01 T00631021  RH  055%=      5-min Rain = 0
KME1 150056Z 35007KT 06/M02 A3038 RMK A01 T00631020  RH  055%=      5-min Rain = 0
KME1 150057Z 35007KT 06/M02 A3038 RMK A01 T00621020  RH  055%=      5-min Rain = 0
KME1 150058Z 35007KT 06/M02 A3038 RMK A01 T00631020  RH  056%=      5-min Rain = 0
KME1 150059Z 35007KT 06/M02 A3038 RMK A01 T00631019  RH  056%=      5-min Rain = 0
KME1 150100Z 35007KT 06/M02 A3038 RMK A01 T00631019  RH  056%=      5-min Rain = 0
KME1 150101Z 35006KT 06/M02 A3038 RMK A01 T00641018  RH  056%=      5-min Rain = 0
KME1 150102Z 35007KT 06/M02 A3038 RMK A01 T00631018  RH  056%=      5-min Rain = 0
KME1 150103Z 36006KT 06/M02 A3038 RMK A01 T00631018  RH  056%=      5-min Rain = 0
KME1 150104Z 36006KT 06/M02 A3038 RMK A01 T00631018  RH  056%=      5-min Rain = 0
KME1 150105Z 35006KT 06/M02 A3038 RMK A01 T00631018  RH  056%=      5-min Rain = 0
KME1 150106Z 35006KT 06/M02 A3038 RMK A01 T00641018  RH  056%=      5-min Rain = 0
KME1 150107Z 35006KT 07/M02 A3038 RMK A01 T00651017  RH  056%=      5-min Rain = 0
KME1 150108Z 35006KT 07/M02 A3038 RMK A01 T00651017  RH  056%=      5-min Rain = 0
KME1 150109Z 35006KT 07/M02 A3038 RMK A01 T00651017  RH  056%=      5-min Rain = 0
KME1 150110Z 35006KT 06/M02 A3038 RMK A01 T00641017  RH  056%=      5-min Rain = 0
KME1 150111Z 35006KT 06/M02 A3038 RMK A01 T00641018  RH  056%=      5-min Rain = 0
KME1 150112Z 35006KT 06/M02 A3038 RMK A01 T00641017  RH  056%=      5-min Rain = 0
KME1 150113Z 35006KT 06/M02 A3038 RMK A01 T00631018  RH  056%=      5-min Rain = 0
KME1 150114Z 35006KT 06/M02 A3038 RMK A01 T00631017  RH  056%=      5-min Rain = 0
KME1 150115Z 35006KT 06/M02 A3038 RMK A01 T00631017  RH  057%=      5-min Rain = 0
KME1 150116Z 35006KT 06/M02 A3038 RMK A01 T00631017  RH  057%=      5-min Rain = 0
KME1 150117Z 35006KT 06/M02 A3038 RMK A01 T00621017  RH  057%=      5-min Rain = 0
KME1 150118Z 35006KT 06/M02 A3039 RMK A01 T00611017  RH  057%=      5-min Rain = 0
KME1 150119Z 35006KT 06/M02 A3039 RMK A01 T00611017  RH  057%=      5-min Rain = 0
KME1 150120Z 35006KT 06/M02 A3039 RMK A01 T00601017  RH  058%=      5-min Rain = 0
KME1 150121Z 35006KT 06/M02 A3039 RMK A01 T00591017  RH  058%=      5-min Rain = 0
KME1 150122Z 35005KT 06/M02 A3039 RMK A01 T00591017  RH  058%=      5-min Rain = 0
KME1 150123Z 35005KT 06/M02 A3039 RMK A01 T00581017  RH  059%=      5-min Rain = 0
KME1 150124Z 35005KT 06/M02 A3039 RMK A01 T00571017  RH  059%=      5-min Rain = 0
KME1 150125Z 35005KT 06/M02 A3039 RMK A01 T00551018  RH  059%=      5-min Rain = 0
KME1 150126Z 35006KT 05/M02 A3039 RMK A01 T00531019  RH  060%=      5-min Rain = 0
KME1 150127Z 35006KT 05/M02 A3039 RMK A01 T00521019  RH  060%=      5-min Rain = 0
KME1 150128Z 35006KT 05/M02 A3039 RMK A01 T00511019  RH  061%=      5-min Rain = 0
KME1 150129Z 35007KT 05/M02 A3039 RMK A01 T00511018  RH  061%=      5-min Rain = 0
KME1 150130Z 35006KT 05/M02 A3039 RMK A01 T00511017  RH  062%=      5-min Rain = 0
KME1 150131Z 35006KT 05/M02 A3039 RMK A01 T00511017  RH  062%=      5-min Rain = 0
KME1 150132Z 35006KT 05/M02 A3039 RMK A01 T00521016  RH  061%=      5-min Rain = 0
KME1 150133Z 35006KT 05/M02 A3039 RMK A01 T00521016  RH  061%=      5-min Rain = 0
KME1 150134Z 35007KT 05/M02 A3039 RMK A01 T00521016  RH  061%=      5-min Rain = 0
KME1 150135Z 35007KT 05/M02 A3039 RMK A01 T00521016  RH  061%=      5-min Rain = 0
KME1 150136Z 35007KT 05/M02 A3039 RMK A01 T00521017  RH  061%=      5-min Rain = 0
KME1 150137Z 35007KT 05/M02 A3039 RMK A01 T00521016  RH  062%=      5-min Rain = 0
KME1 150138Z 35007KT 05/M02 A3039 RMK A01 T00521015  RH  062%=      5-min Rain = 0
KME1 150139Z 35006KT 05/M01 A3039 RMK A01 T00531014  RH  062%=      5-min Rain = 0
KME1 150140Z 35006KT 05/M01 A3039 RMK A01 T00541014  RH  061%=      5-min Rain = 0
KME1 150141Z 35006KT 06/M01 A3039 RMK A01 T00561013  RH  061%=      5-min Rain = 0
KME1 150142Z 35006KT 06/M01 A3039 RMK A01 T00561013  RH  061%=      5-min Rain = 0
KME1 150143Z 35006KT 06/M01 A3039 RMK A01 T00571013  RH  061%=      5-min Rain = 0
KME1 150144Z 35006KT 06/M01 A304 RMK A01 T00571014  RH  061%=      5-min Rain = 0
KME1 150145Z 35006KT 06/M01 A304 RMK A01 T00571014  RH  060%=      5-min Rain = 0
KME1 150146Z 35007KT 06/M01 A304 RMK A01 T00571014  RH  060%=      5-min Rain = 0
KME1 150147Z 35007KT 06/M01 A304 RMK A01 T00571013  RH  060%=      5-min Rain = 0
KME1 150148Z 36007KT 06/M01 A304 RMK A01 T00581013  RH  060%=      5-min Rain = 0
KME1 150149Z 36007KT 06/M01 A304 RMK A01 T00591012  RH  060%=      5-min Rain = 0
KME1 150150Z 35006KT 06/M01 A304 RMK A01 T00601012  RH  060%=      5-min Rain = 0
KME1 150151Z 35007KT 06/M01 A304 RMK A01 T00601012  RH  060%=      5-min Rain = 0
KME1 150152Z 34006KT 06/M01 A304 RMK A01 T00611013  RH  059%=      5-min Rain = 0
KME1 150153Z 34006KT 06/M01 A304 RMK A01 T00601013  RH  059%=      5-min Rain = 0
KME1 150154Z 34006KT 06/M01 A304 RMK A01 T00601013  RH  059%=      5-min Rain = 0
KME1 150155Z 34006KT 06/M01 A304 RMK A01 T00591014  RH  059%=      5-min Rain = 0
KME1 150156Z 34005KT 06/M01 A304 RMK A01 T00581014  RH  060%=      5-min Rain = 0
KME1 150157Z 34006KT 06/M02 A304 RMK A01 T00571015  RH  060%=      5-min Rain = 0
KME1 150158Z 34005KT 06/M02 A304 RMK A01 T00551015  RH  061%=      5-min Rain = 0
KME1 150159Z 34005KT 05/M02 A304 RMK A01 T00541016  RH  061%=      5-min Rain = 0
KME1 150200Z 34005KT 05/M02 A304 RMK A01 T00521016  RH  061%=      5-min Rain = 0
KME1 150201Z 33005KT 05/M02 A304 RMK A01 T00511016  RH  062%=      5-min Rain = 0
KME1 150202Z 34005KT 05/M02 A304 RMK A01 T00491016  RH  062%=      5-min Rain = 0
KME1 150203Z 33005KT 05/M02 A304 RMK A01 T00481017  RH  063%=      5-min Rain = 0
KME1 150204Z 33005KT 05/M02 A304 RMK A01 T00471017  RH  063%=      5-min Rain = 0
KME1 150205Z 33005KT 05/M02 A304 RMK A01 T00451017  RH  064%=      5-min Rain = 0
KME1 150206Z 33005KT 04/M02 A3041 RMK A01 T00441017  RH  064%=      5-min Rain = 0
KME1 150207Z 33005KT 04/M02 A3041 RMK A01 T00441017  RH  065%=      5-min Rain = 0
KME1 150208Z 33005KT 04/M02 A3041 RMK A01 T00431017  RH  065%=      5-min Rain = 0
KME1 150209Z 33005KT 04/M02 A3041 RMK A01 T00421017  RH  066%=      5-min Rain = 0
KME1 150210Z 33005KT 04/M02 A3041 RMK A01 T00411017  RH  066%=      5-min Rain = 0
KME1 150211Z 32005KT 04/M02 A3041 RMK A01 T00411017  RH  066%=      5-min Rain = 0
KME1 150212Z 32005KT 04/M02 A3041 RMK A01 T00401016  RH  066%=      5-min Rain = 0
KME1 150213Z 32005KT 04/M02 A3041 RMK A01 T00401016  RH  067%=      5-min Rain = 0
KME1 150214Z 32005KT 04/M02 A3041 RMK A01 T00391016  RH  067%=      5-min Rain = 0
KME1 150215Z 32005KT 04/M02 A3041 RMK A01 T00391016  RH  067%=      5-min Rain = 0
KME1 150216Z 32005KT 04/M02 A3041 RMK A01 T00391016  RH  067%=      5-min Rain = 0
KME1 150217Z 33005KT 04/M02 A3041 RMK A01 T00391016  RH  068%=      5-min Rain = 0
KME1 150218Z 32005KT 04/M02 A3041 RMK A01 T00381016  RH  068%=      5-min Rain = 0
KME1 150219Z 33005KT 04/M02 A3041 RMK A01 T00381016  RH  068%=      5-min Rain = 0
KME1 150220Z 33005KT 04/M02 A3041 RMK A01 T00391015  RH  068%=      5-min Rain = 0
KME1 150221Z 33005KT 04/M02 A3041 RMK A01 T00391015  RH  068%=      5-min Rain = 0
KME1 150222Z 33005KT 04/M02 A3041 RMK A01 T00401015  RH  067%=      5-min Rain = 0
KME1 150223Z 33005KT 04/M01 A3041 RMK A01 T00411014  RH  067%=      5-min Rain = 0
KME1 150224Z 33005KT 04/M01 A3041 RMK A01 T00421014  RH  067%=      5-min Rain = 0
KME1 150225Z 33005KT 04/M01 A3041 RMK A01 T00421014  RH  067%=      5-min Rain = 0
KME1 150226Z 33005KT 04/M01 A3041 RMK A01 T00431014  RH  067%=      5-min Rain = 0
KME1 150227Z 33005KT 04/M01 A3041 RMK A01 T00431014  RH  067%=      5-min Rain = 0
KME1 150228Z 33005KT 04/M01 A3041 RMK A01 T00431014  RH  066%=      5-min Rain = 0
KME1 150229Z 33005KT 04/M01 A3041 RMK A01 T00431014  RH  067%=      5-min Rain = 0
KME1 150230Z 34005KT 04/M01 A3041 RMK A01 T00421014  RH  067%=      5-min Rain = 0
KME1 150231Z 34005KT 04/M01 A3041 RMK A01 T00421014  RH  067%=      5-min Rain = 0
KME1 150232Z 34005KT 04/M01 A3041 RMK A01 T00421014  RH  067%=      5-min Rain = 0
KME1 150233Z 34005KT 04/M01 A3041 RMK A01 T00411014  RH  067%=      5-min Rain = 0
KME1 150234Z 34005KT 04/M01 A3041 RMK A01 T00411014  RH  068%=      5-min Rain = 0
KME1 150235Z 34005KT 04/M01 A3041 RMK A01 T00401014  RH  068%=      5-min Rain = 0
KME1 150236Z 34005KT 04/M01 A3042 RMK A01 T00401014  RH  068%=      5-min Rain = 0
KME1 150237Z 34005KT 04/M01 A3042 RMK A01 T00391014  RH  068%=      5-min Rain = 0
KME1 150238Z 34005KT 04/M01 A3042 RMK A01 T00391014  RH  068%=      5-min Rain = 0
KME1 150239Z 34005KT 04/M01 A3042 RMK A01 T00381014  RH  069%=      5-min Rain = 0
KME1 150240Z 34005KT 04/M01 A3042 RMK A01 T00381014  RH  069%=      5-min Rain = 0
KME1 150241Z 33005KT 04/M01 A3042 RMK A01 T00381014  RH  069%=      5-min Rain = 0
KME1 150242Z 33005KT 04/M01 A3042 RMK A01 T00381014  RH  069%=      5-min Rain = 0
KME1 150243Z 33005KT 04/M01 A3042 RMK A01 T00381014  RH  069%=      5-min Rain = 0
KME1 150244Z 33005KT 04/M01 A3042 RMK A01 T00381013  RH  069%=      5-min Rain = 0
KME1 150245Z 33005KT 04/M01 A3042 RMK A01 T00381013  RH  069%=      5-min Rain = 0
KME1 150246Z 33005KT 04/M01 A3042 RMK A01 T00381013  RH  069%=      5-min Rain = 0
KME1 150247Z 33005KT 04/M01 A3042 RMK A01 T00371014  RH  069%=      5-min Rain = 0
KME1 150248Z 33005KT 04/M01 A3042 RMK A01 T00371013  RH  070%=      5-min Rain = 0
KME1 150249Z 33005KT 04/M01 A3042 RMK A01 T00371013  RH  070%=      5-min Rain = 0
KME1 150250Z 33005KT 04/M01 A3042 RMK A01 T00361013  RH  070%=      5-min Rain = 0
KME1 150251Z 33005KT 04/M01 A3042 RMK A01 T00361014  RH  070%=      5-min Rain = 0
KME1 150252Z 33005KT 04/M01 A3042 RMK A01 T00351013  RH  070%=      5-min Rain = 0
KME1 150253Z 33005KT 04/M01 A3042 RMK A01 T00351013  RH  071%=      5-min Rain = 0
KME1 150254Z 33005KT 04/M01 A3042 RMK A01 T00361013  RH  071%=      5-min Rain = 0
KME1 150255Z 33005KT 04/M01 A3042 RMK A01 T00361013  RH  071%=      5-min Rain = 0
KME1 150256Z 33005KT 04/M01 A3042 RMK A01 T00351013  RH  071%=      5-min Rain = 0
KME1 150257Z 33006KT 04/M01 A3042 RMK A01 T00351013  RH  071%=      5-min Rain = 0
KME1 150258Z 33006KT 04/M01 A3042 RMK A01 T00351013  RH  071%=      5-min Rain = 0
KME1 150259Z 33006KT 04/M01 A3042 RMK A01 T00361012  RH  071%=      5-min Rain = 0
KME1 150300Z 33006KT 04/M01 A3042 RMK A01 T00361012  RH  071%=      5-min Rain = 0
KME1 150301Z 33005KT 04/M01 A3042 RMK A01 T00361012  RH  071%=      5-min Rain = 0
KME1 150302Z 33005KT 04/M01 A3042 RMK A01 T00361012  RH  071%=      5-min Rain = 0
KME1 150303Z 33005KT 04/M01 A3042 RMK A01 T00361012  RH  071%=      5-min Rain = 0
KME1 150304Z 33005KT 04/M01 A3042 RMK A01 T00361012  RH  071%=      5-min Rain = 0
KME1 150305Z 34005KT 04/M01 A3042 RMK A01 T00351012  RH  071%=      5-min Rain = 0
KME1 150306Z 34005KT 04/M01 A3042 RMK A01 T00351012  RH  071%=      5-min Rain = 0
KME1 150307Z 34005KT 04/M01 A3042 RMK A01 T00351012  RH  071%=      5-min Rain = 0
KME1 150308Z 34005KT 04/M01 A3042 RMK A01 T00351012  RH  071%=      5-min Rain = 0
KME1 150309Z 34005KT 03/M01 A3042 RMK A01 T00341012  RH  072%=      5-min Rain = 0
KME1 150310Z 35005KT 04/M01 A3042 RMK A01 T00351011  RH  072%=      5-min Rain = 0
KME1 150311Z 35004KT 03/M01 A3042 RMK A01 T00341011  RH  072%=      5-min Rain = 0
KME1 150312Z 35005KT 04/M01 A3043 RMK A01 T00351010  RH  073%=      5-min Rain = 0
KME1 150313Z 35005KT 04/M01 A3043 RMK A01 T00351010  RH  073%=      5-min Rain = 0
KME1 150314Z 35005KT 04/M01 A3043 RMK A01 T00351009  RH  073%=      5-min Rain = 0
KME1 150315Z 34005KT 04/M01 A3043 RMK A01 T00361008  RH  073%=      5-min Rain = 0
KME1 150316Z 35005KT 04/M01 A3043 RMK A01 T00371008  RH  073%=      5-min Rain = 0
KME1 150317Z 34005KT 04/M01 A3043 RMK A01 T00381008  RH  072%=      5-min Rain = 0
KME1 150318Z 35004KT 04/M01 A3043 RMK A01 T00391007  RH  072%=      5-min Rain = 0
KME1 150319Z 35004KT 04/M01 A3043 RMK A01 T00391008  RH  072%=      5-min Rain = 0
KME1 150320Z 35004KT 04/M01 A3043 RMK A01 T00391008  RH  071%=      5-min Rain = 0
KME1 150321Z 35004KT 04/M01 A3043 RMK A01 T00401007  RH  071%=      5-min Rain = 0
KME1 150322Z 35004KT 04/M01 A3043 RMK A01 T00401007  RH  071%=      5-min Rain = 0
KME1 150323Z 34004KT 04/M01 A3043 RMK A01 T00411007  RH  071%=      5-min Rain = 0
KME1 150324Z 35004KT 04/M01 A3043 RMK A01 T00411007  RH  071%=      5-min Rain = 0
KME1 150325Z 35004KT 04/M01 A3043 RMK A01 T00411007  RH  071%=      5-min Rain = 0
KME1 150326Z 35003KT 04/M01 A3043 RMK A01 T00411007  RH  071%=      5-min Rain = 0
KME1 150327Z 34004KT 04/M01 A3043 RMK A01 T00401007  RH  071%=      5-min Rain = 0
KME1 150328Z 35004KT 04/M01 A3043 RMK A01 T00401007  RH  071%=      5-min Rain = 0
KME1 150329Z 35003KT 04/M01 A3043 RMK A01 T00391007  RH  072%=      5-min Rain = 0
KME1 150330Z 35003KT 04/M01 A3043 RMK A01 T00391007  RH  072%=      5-min Rain = 0
KME1 150331Z 34004KT 04/M01 A3043 RMK A01 T00381007  RH  072%=      5-min Rain = 0
KME1 150332Z 34004KT 04/M01 A3043 RMK A01 T00381007  RH  072%=      5-min Rain = 0
KME1 150333Z 34004KT 04/M01 A3043 RMK A01 T00381007  RH  072%=      5-min Rain = 0
KME1 150334Z 34004KT 04/M01 A3043 RMK A01 T00391006  RH  072%=      5-min Rain = 0
KME1 150335Z 34004KT 04/M01 A3043 RMK A01 T00391007  RH  072%=      5-min Rain = 0
KME1 150336Z 34004KT 04/M01 A3043 RMK A01 T00391007  RH  072%=      5-min Rain = 0
KME1 150337Z 34004KT 04/M01 A3043 RMK A01 T00381007  RH  072%=      5-min Rain = 0
KME1 150338Z 34004KT 04/M01 A3043 RMK A01 T00381007  RH  073%=      5-min Rain = 0
KME1 150339Z 33003KT 04/M01 A3043 RMK A01 T00371007  RH  073%=      5-min Rain = 0
KME1 150340Z 32003KT 04/M01 A3043 RMK A01 T00361008  RH  073%=      5-min Rain = 0
KME1 150341Z 32003KT 04/M01 A3043 RMK A01 T00351008  RH  073%=      5-min Rain = 0
KME1 150342Z 32003KT 04/M01 A3043 RMK A01 T00351009  RH  073%=      5-min Rain = 0
KME1 150343Z 31003KT 03/M01 A3043 RMK A01 T00341009  RH  074%=      5-min Rain = 0
KME1 150344Z 32003KT 03/M01 A3043 RMK A01 T00331010  RH  074%=      5-min Rain = 0
KME1 150345Z 32003KT 03/M01 A3043 RMK A01 T00331010  RH  074%=      5-min Rain = 0
KME1 150346Z 32002KT 03/M01 A3043 RMK A01 T00321011  RH  074%=      5-min Rain = 0
KME1 150347Z 32002KT 03/M01 A3043 RMK A01 T00311011  RH  074%=      5-min Rain = 0
KME1 150348Z 32002KT 03/M01 A3043 RMK A01 T00301012  RH  074%=      5-min Rain = 0
KME1 150349Z 32003KT 03/M01 A3043 RMK A01 T00291012  RH  074%=      5-min Rain = 0
KME1 150350Z 31004KT 03/M01 A3043 RMK A01 T00281012  RH  075%=      5-min Rain = 0
KME1 150351Z 31004KT 03/M01 A3043 RMK A01 T00271012  RH  075%=      5-min Rain = 0
KME1 150352Z 31004KT 03/M01 A3043 RMK A01 T00271012  RH  076%=      5-min Rain = 0
KME1 150353Z 32004KT 03/M01 A3043 RMK A01 T00261012  RH  076%=      5-min Rain = 0
KME1 150354Z 32004KT 03/M01 A3043 RMK A01 T00251012  RH  077%=      5-min Rain = 0
KME1 150355Z 32004KT 02/M01 A3043 RMK A01 T00241011  RH  077%=      5-min Rain = 0
KME1 150356Z 32003KT 02/M01 A3043 RMK A01 T00241011  RH  078%=      5-min Rain = 0
KME1 150357Z 32003KT 02/M01 A3043 RMK A01 T00241011  RH  078%=      5-min Rain = 0
KME1 150358Z 32003KT 02/M01 A3043 RMK A01 T00241011  RH  078%=      5-min Rain = 0
KME1 150359Z 32003KT 02/M01 A3043 RMK A01 T00231011  RH  078%=      5-min Rain = 0
KME1 150400Z 32003KT 02/M01 A3043 RMK A01 T00231011  RH  078%=      5-min Rain = 0
KME1 150401Z 32002KT 02/M01 A3043 RMK A01 T00221012  RH  078%=      5-min Rain = 0
KME1 150402Z 32001KT 02/M01 A3043 RMK A01 T00211014  RH  078%=      5-min Rain = 0
KME1 150403Z 31001KT 02/M02 A3043 RMK A01 T00201015  RH  078%=      5-min Rain = 0
KME1 150404Z 31000KT 02/M02 A3043 RMK A01 T00181018  RH  077%=      5-min Rain = 0
KME1 150405Z 30000KT 02/M02 A3044 RMK A01 T00151020  RH  077%=      5-min Rain = 0
KME1 150406Z 28000KT 01/M02 A3044 RMK A01 T00131020  RH  078%=      5-min Rain = 0
KME1 150407Z 28001KT 01/M02 A3044 RMK A01 T00111020  RH  080%=      5-min Rain = 0
KME1 150408Z 31000KT 01/M02 A3044 RMK A01 T00101019  RH  081%=      5-min Rain = 0
KME1 150409Z 33000KT 01/M02 A3044 RMK A01 T00091018  RH  082%=      5-min Rain = 0
KME1 150410Z 32000KT 01/M02 A3044 RMK A01 T00091016  RH  083%=      5-min Rain = 0
KME1 150411Z 00000KT 01/M01 A3044 RMK A01 T00101014  RH  084%=      5-min Rain = 0
KME1 150412Z 29001KT 01/M02 A3044 RMK A01 T00101015  RH  083%=      5-min Rain = 0
KME1 150413Z 30000KT 01/M01 A3044 RMK A01 T00111013  RH  084%=      5-min Rain = 0
KME1 150414Z 31000KT 01/M01 A3044 RMK A01 T00121013  RH  083%=      5-min Rain = 0
KME1 150415Z 30000KT 01/M01 A3044 RMK A01 T00121014  RH  083%=      5-min Rain = 0
KME1 150416Z 33000KT 01/M01 A3044 RMK A01 T00121013  RH  083%=      5-min Rain = 0
KME1 150417Z 30001KT 01/M01 A3044 RMK A01 T00131013  RH  083%=      5-min Rain = 0
KME1 150418Z 33001KT 01/M01 A3044 RMK A01 T00121013  RH  083%=      5-min Rain = 0
KME1 150419Z 31001KT 01/M01 A3044 RMK A01 T00131013  RH  083%=      5-min Rain = 0
KME1 150420Z 31001KT 01/M01 A3044 RMK A01 T00131011  RH  084%=      5-min Rain = 0
KME1 150421Z 31001KT 02/M01 A3044 RMK A01 T00151010  RH  083%=      5-min Rain = 0
KME1 150422Z 31001KT 02/M01 A3044 RMK A01 T00161010  RH  083%=      5-min Rain = 0
KME1 150423Z 31002KT 02/M01 A3044 RMK A01 T00171010  RH  083%=      5-min Rain = 0
KME1 150424Z 31002KT 02/M01 A3044 RMK A01 T00181009  RH  082%=      5-min Rain = 0
KME1 150425Z 31002KT 02/M01 A3044 RMK A01 T00201009  RH  081%=      5-min Rain = 0
KME1 150426Z 31002KT 02/M01 A3044 RMK A01 T00221009  RH  080%=      5-min Rain = 0
KME1 150427Z 32002KT 02/M01 A3044 RMK A01 T00221010  RH  079%=      5-min Rain = 0
KME1 150428Z 32002KT 02/M01 A3044 RMK A01 T00231009  RH  079%=      5-min Rain = 0
KME1 150429Z 33002KT 02/M01 A3044 RMK A01 T00231010  RH  079%=      5-min Rain = 0
KME1 150430Z 32002KT 02/M01 A3044 RMK A01 T00241010  RH  079%=      5-min Rain = 0
KME1 150431Z 33002KT 03/M01 A3044 RMK A01 T00251009  RH  078%=      5-min Rain = 0
KME1 150432Z 33002KT 03/M01 A3044 RMK A01 T00251011  RH  077%=      5-min Rain = 0
KME1 150433Z 33002KT 02/M01 A3044 RMK A01 T00231014  RH  077%=      5-min Rain = 0
KME1 150434Z 33002KT 02/M02 A3044 RMK A01 T00211015  RH  077%=      5-min Rain = 0
KME1 150435Z 32002KT 02/M02 A3044 RMK A01 T00181018  RH  077%=      5-min Rain = 0
KME1 150436Z 32001KT 02/M02 A3044 RMK A01 T00151021  RH  077%=      5-min Rain = 0
KME1 150437Z 19000KT 01/M02 A3044 RMK A01 T00111021  RH  079%=      5-min Rain = 0
KME1 150438Z 22001KT 01/M02 A3044 RMK A01 T00101018  RH  082%=      5-min Rain = 0
KME1 150439Z 22001KT 01/M02 A3044 RMK A01 T00111015  RH  083%=      5-min Rain = 0
KME1 150440Z 24001KT 01/M02 A3044 RMK A01 T00111016  RH  082%=      5-min Rain = 0
KME1 150441Z 25001KT 01/M02 A3044 RMK A01 T00101019  RH  081%=      5-min Rain = 0
KME1 150442Z 26000KT 01/M02 A3044 RMK A01 T00081020  RH  082%=      5-min Rain = 0
KME1 150443Z 23001KT 01/M02 A3044 RMK A01 T00061019  RH  083%=      5-min Rain = 0
KME1 150444Z 23001KT 01/M02 A3045 RMK A01 T00051019  RH  084%=      5-min Rain = 0
KME1 150445Z 22001KT 00/M02 A3045 RMK A01 T00041019  RH  085%=      5-min Rain = 0
KME1 150446Z 23001KT 00/M02 A3045 RMK A01 T00031018  RH  086%=      5-min Rain = 0
KME1 150447Z 26001KT 00/M01 A3044 RMK A01 T00041014  RH  087%=      5-min Rain = 0
KME1 150448Z 26001KT 01/M01 A3044 RMK A01 T00051014  RH  087%=      5-min Rain = 0
KME1 150449Z 25001KT 01/M02 A3044 RMK A01 T00051015  RH  087%=      5-min Rain = 0
KME1 150450Z 26001KT 01/M02 A3044 RMK A01 T00051015  RH  087%=      5-min Rain = 0
KME1 150451Z 26001KT 01/M01 A3044 RMK A01 T00051014  RH  087%=      5-min Rain = 0
KME1 150452Z 25001KT 01/M01 A3044 RMK A01 T00051013  RH  088%=      5-min Rain = 0
KME1 150453Z 26000KT 01/M01 A3045 RMK A01 T00071010  RH  089%=      5-min Rain = 0
KME1 150454Z 28001KT 01/M01 A3045 RMK A01 T00081010  RH  088%=      5-min Rain = 0
KME1 150455Z 29001KT 01/M01 A3045 RMK A01 T00091009  RH  087%=      5-min Rain = 0
KME1 150456Z 29001KT 01/M01 A3045 RMK A01 T00121007  RH  087%=      5-min Rain = 0
KME1 150457Z 30001KT 01/M01 A3045 RMK A01 T00141008  RH  085%=      5-min Rain = 0
KME1 150458Z 30001KT 02/M01 A3045 RMK A01 T00151011  RH  083%=      5-min Rain = 0
KME1 150459Z 30001KT 01/M01 A3045 RMK A01 T00131014  RH  082%=      5-min Rain = 0
KME1 150500Z 29000KT 01/M02 A3045 RMK A01 T00121016  RH  082%=      5-min Rain = 0
KME1 150501Z 00000KT 01/M02 A3045 RMK A01 T00101018  RH  082%=      5-min Rain = 0
KME1 150502Z 20000KT 01/M02 A3045 RMK A01 T00081020  RH  082%=      5-min Rain = 0
KME1 150503Z 19000KT 01/M02 A3045 RMK A01 T00061020  RH  083%=      5-min Rain = 0
KME1 150504Z 20001KT 01/M02 A3045 RMK A01 T00051019  RH  084%=      5-min Rain = 0
KME1 150505Z 19002KT 00/M02 A3045 RMK A01 T00041020  RH  084%=      5-min Rain = 0
KME1 150506Z 19003KT 00/M02 A3045 RMK A01 T00021022  RH  084%=      5-min Rain = 0
KME1 150507Z 20003KT 00/M02 A3045 RMK A01 T00011020  RH  086%=      5-min Rain = 0
KME1 150508Z 21002KT 00/M02 A3045 RMK A01 T00011019  RH  087%=      5-min Rain = 0
KME1 150509Z 21002KT 00/02 A3045 RMK A01 T00000-19  RH  087%=      5-min Rain = 0
KME1 150510Z 21001KT M00/M02 A3045 RMK A01 T10011020  RH  087%=      5-min Rain = 0
KME1 150511Z 22001KT M00/M02 A3045 RMK A01 T10021021  RH  087%=      5-min Rain = 0
KME1 150512Z 22001KT M00/M02 A3045 RMK A01 T10031020  RH  088%=      5-min Rain = 0
KME1 150513Z 21001KT M00/M02 A3045 RMK A01 T10031019  RH  089%=      5-min Rain = 0
KME1 150514Z 21001KT M00/M02 A3045 RMK A01 T10031019  RH  089%=      5-min Rain = 0
KME1 150515Z 21001KT M00/M02 A3045 RMK A01 T10031018  RH  090%=      5-min Rain = 0
KME1 150516Z 20001KT M00/M02 A3045 RMK A01 T10041017  RH  090%=      5-min Rain = 0
KME1 150517Z 21002KT M00/M02 A3045 RMK A01 T10041018  RH  090%=      5-min Rain = 0
KME1 150518Z 21002KT M01/M02 A3045 RMK A01 T10051018  RH  091%=      5-min Rain = 0
KME1 150519Z 20002KT M01/M02 A3045 RMK A01 T10051019  RH  091%=      5-min Rain = 0
KME1 150520Z 20003KT M01/M02 A3045 RMK A01 T10061018  RH  091%=      5-min Rain = 0
KME1 150521Z 20003KT M01/M02 A3045 RMK A01 T10061017  RH  092%=      5-min Rain = 0
KME1 150522Z 21003KT M01/M02 A3045 RMK A01 T10061018  RH  092%=      5-min Rain = 0
KME1 150523Z 21003KT M01/M02 A3045 RMK A01 T10061017  RH  092%=      5-min Rain = 0
KME1 150524Z 21003KT M01/M02 A3045 RMK A01 T10061017  RH  092%=      5-min Rain = 0
KME1 150525Z 21003KT M01/M02 A3045 RMK A01 T10061017  RH  092%=      5-min Rain = 0
KME1 150526Z 21003KT M01/M02 A3045 RMK A01 T10061017  RH  092%=      5-min Rain = 0
KME1 150527Z 21003KT M01/M02 A3045 RMK A01 T10061017  RH  092%=      5-min Rain = 0
KME1 150528Z 20003KT M01/M02 A3045 RMK A01 T10061017  RH  092%=      5-min Rain = 0
KME1 150529Z 20003KT M01/M02 A3045 RMK A01 T10071018  RH  092%=      5-min Rain = 0
KME1 150530Z 20004KT M01/M02 A3045 RMK A01 T10071018  RH  092%=      5-min Rain = 0
KME1 150531Z 20004KT M01/M02 A3045 RMK A01 T10071019  RH  092%=      5-min Rain = 0
KME1 150532Z 20004KT M01/M02 A3045 RMK A01 T10081019  RH  092%=      5-min Rain = 0
KME1 150533Z 20004KT M01/M02 A3045 RMK A01 T10081019  RH  093%=      5-min Rain = 0
KME1 150534Z 21004KT M01/M02 A3045 RMK A01 T10091018  RH  093%=      5-min Rain = 0
KME1 150535Z 20005KT M01/M02 A3045 RMK A01 T10091019  RH  093%=      5-min Rain = 0
KME1 150536Z 21005KT M01/M02 A3045 RMK A01 T10091018  RH  093%=      5-min Rain = 0
KME1 150537Z 21004KT M01/M02 A3045 RMK A01 T10091018  RH  094%=      5-min Rain = 0
KME1 150538Z 21004KT M01/M02 A3045 RMK A01 T10091018  RH  094%=      5-min Rain = 0
KME1 150539Z 21004KT M01/M02 A3045 RMK A01 T10101018  RH  094%=      5-min Rain = 0
KME1 150540Z 21004KT M01/M02 A3045 RMK A01 T10091018  RH  094%=      5-min Rain = 0
KME1 150541Z 21004KT M01/M02 A3045 RMK A01 T10101018  RH  094%=      5-min Rain = 0
KME1 150542Z 21003KT M01/M02 A3045 RMK A01 T10101019  RH  094%=      5-min Rain = 0
KME1 150543Z 22003KT M01/M02 A3045 RMK A01 T10101019  RH  094%=      5-min Rain = 0
KME1 150544Z 21003KT M01/M02 A3045 RMK A01 T10111019  RH  094%=      5-min Rain = 0
KME1 150545Z 22003KT M01/M02 A3045 RMK A01 T10111020  RH  094%=      5-min Rain = 0
KME1 150546Z 22003KT M01/M02 A3045 RMK A01 T10121020  RH  094%=      5-min Rain = 0
KME1 150547Z 22003KT M01/M02 A3045 RMK A01 T10121020  RH  095%=      5-min Rain = 0
KME1 150548Z 22003KT M01/M02 A3045 RMK A01 T10131020  RH  094%=      5-min Rain = 0
KME1 150549Z 22003KT M01/M02 A3045 RMK A01 T10131021  RH  095%=      5-min Rain = 0
KME1 150550Z 22003KT M01/M02 A3045 RMK A01 T10141021  RH  095%=      5-min Rain = 0
KME1 150551Z 22003KT M01/M02 A3045 RMK A01 T10141021  RH  095%=      5-min Rain = 0
KME1 150552Z 22003KT M01/M02 A3045 RMK A01 T10141021  RH  095%=      5-min Rain = 0
KME1 150553Z 21003KT M01/M02 A3045 RMK A01 T10141020  RH  096%=      5-min Rain = 0
KME1 150554Z 21003KT M02/M02 A3045 RMK A01 T10151022  RH  095%=      5-min Rain = 0
KME1 150555Z 21003KT M02/M02 A3045 RMK A01 T10151022  RH  095%=      5-min Rain = 0
KME1 150556Z 21003KT M02/M02 A3045 RMK A01 T10151021  RH  096%=      5-min Rain = 0
KME1 150557Z 23002KT M02/M02 A3045 RMK A01 T10151021  RH  096%=      5-min Rain = 0
KME1 150558Z 25002KT M02/M02 A3045 RMK A01 T10151022  RH  096%=      5-min Rain = 0
KME1 150559Z 24002KT M02/M02 A3045 RMK A01 T10161022  RH  096%=      5-min Rain = 0

Page generated in 0.132 seconds.